<?xml version="1.0" encoding="UTF-8" standalone="no" ?>
<gpx xmlns="http://www.topografix.com/GPX/1/1" xmlns:xsi="http://www.w3.org/2001/XMLSchema-instance" xsi:schemaLocation="http://www.topografix.com/GPX/1/1 http://www.topografix.com/GPX/1/1/gpx.xsd" version="1.1" creator="VisuGPX - https://www.visugpx.com">
  <metadata>
    <name>ogeu 2 revu</name>
    <desc><![CDATA[monter puis tourner à gauche]]></desc>
  </metadata>
  <trk>
    <name><![CDATA[ogeu 2 revu_4]]></name>
    <extensions>
      <line xmlns="http://www.topografix.com/GPX/gpx_style/0/2">
        <color>00FFFF</color>
        <width>4</width>
      </line>
    </extensions>
    <trkseg>
      <trkpt lat="43.14401" lon="-0.50784">
        <ele>330.83</ele>
        <time>2021-08-29T12:38:51Z</time>
      </trkpt>
      <trkpt lat="43.14401" lon="-0.50784">
        <ele>330.83</ele>
        <time>2021-08-29T12:38:51Z</time>
      </trkpt>
      <trkpt lat="43.14399" lon="-0.50795">
        <ele>330.35</ele>
        <time>2021-08-29T12:38:50Z</time>
      </trkpt>
      <trkpt lat="43.14394" lon="-0.50841">
        <ele>333.71</ele>
        <time>2021-08-29T12:38:47Z</time>
      </trkpt>
      <trkpt lat="43.14387" lon="-0.50887">
        <ele>337.08</ele>
        <time>2021-08-29T12:38:44Z</time>
      </trkpt>
      <trkpt lat="43.1438" lon="-0.50928">
        <ele>340.92</ele>
        <time>2021-08-29T12:38:41Z</time>
      </trkpt>
      <trkpt lat="43.14372" lon="-0.50982">
        <ele>344.29</ele>
        <time>2021-08-29T12:38:36Z</time>
      </trkpt>
      <trkpt lat="43.1437" lon="-0.50992">
        <ele>344.77</ele>
        <time>2021-08-29T12:38:35Z</time>
      </trkpt>
      <trkpt lat="43.14358" lon="-0.51031">
        <ele>346.21</ele>
        <time>2021-08-29T12:38:30Z</time>
      </trkpt>
      <trkpt lat="43.14313" lon="-0.5112">
        <ele>348.13</ele>
        <time>2021-08-29T12:38:17Z</time>
      </trkpt>
      <trkpt lat="43.14287" lon="-0.51169">
        <ele>348.62</ele>
        <time>2021-08-29T12:38:09Z</time>
      </trkpt>
      <trkpt lat="43.14284" lon="-0.51174">
        <ele>348.62</ele>
        <time>2021-08-29T12:38:08Z</time>
      </trkpt>
      <trkpt lat="43.14282" lon="-0.5118">
        <ele>348.13</ele>
        <time>2021-08-29T12:38:07Z</time>
      </trkpt>
      <trkpt lat="43.14279" lon="-0.51187">
        <ele>348.13</ele>
        <time>2021-08-29T12:38:06Z</time>
      </trkpt>
      <trkpt lat="43.14278" lon="-0.51194">
        <ele>347.17</ele>
        <time>2021-08-29T12:38:05Z</time>
      </trkpt>
      <trkpt lat="43.14276" lon="-0.51201">
        <ele>347.17</ele>
        <time>2021-08-29T12:38:04Z</time>
      </trkpt>
      <trkpt lat="43.14275" lon="-0.51209">
        <ele>347.17</ele>
        <time>2021-08-29T12:38:03Z</time>
      </trkpt>
      <trkpt lat="43.14275" lon="-0.51217">
        <ele>346.69</ele>
        <time>2021-08-29T12:38:02Z</time>
      </trkpt>
      <trkpt lat="43.14275" lon="-0.51225">
        <ele>346.21</ele>
        <time>2021-08-29T12:38:01Z</time>
      </trkpt>
      <trkpt lat="43.14277" lon="-0.51241">
        <ele>346.21</ele>
        <time>2021-08-29T12:37:59Z</time>
      </trkpt>
      <trkpt lat="43.14279" lon="-0.51249">
        <ele>346.21</ele>
        <time>2021-08-29T12:37:58Z</time>
      </trkpt>
      <trkpt lat="43.14291" lon="-0.51332">
        <ele>346.21</ele>
        <time>2021-08-29T12:37:47Z</time>
      </trkpt>
      <trkpt lat="43.14298" lon="-0.5136">
        <ele>346.21</ele>
        <time>2021-08-29T12:37:43Z</time>
      </trkpt>
      <trkpt lat="43.1431" lon="-0.51403">
        <ele>346.21</ele>
        <time>2021-08-29T12:37:37Z</time>
      </trkpt>
      <trkpt lat="43.14347" lon="-0.51503">
        <ele>346.69</ele>
        <time>2021-08-29T12:37:22Z</time>
      </trkpt>
      <trkpt lat="43.14408" lon="-0.51595">
        <ele>346.21</ele>
        <time>2021-08-29T12:37:04Z</time>
      </trkpt>
      <trkpt lat="43.14411" lon="-0.51599">
        <ele>346.21</ele>
        <time>2021-08-29T12:37:03Z</time>
      </trkpt>
      <trkpt lat="43.1444" lon="-0.51643">
        <ele>345.73</ele>
        <time>2021-08-29T12:36:55Z</time>
      </trkpt>
      <trkpt lat="43.14487" lon="-0.51744">
        <ele>345.73</ele>
        <time>2021-08-29T12:36:39Z</time>
      </trkpt>
      <trkpt lat="43.1449" lon="-0.5175">
        <ele>345.73</ele>
        <time>2021-08-29T12:36:38Z</time>
      </trkpt>
      <trkpt lat="43.14505" lon="-0.51789">
        <ele>345.25</ele>
        <time>2021-08-29T12:36:31Z</time>
      </trkpt>
      <trkpt lat="43.14509" lon="-0.51799">
        <ele>345.25</ele>
        <time>2021-08-29T12:36:29Z</time>
      </trkpt>
      <trkpt lat="43.14542" lon="-0.51855">
        <ele>342.85</ele>
        <time>2021-08-29T12:36:16Z</time>
      </trkpt>
      <trkpt lat="43.14546" lon="-0.51859">
        <ele>342.85</ele>
        <time>2021-08-29T12:36:15Z</time>
      </trkpt>
      <trkpt lat="43.1455" lon="-0.51863">
        <ele>342.85</ele>
        <time>2021-08-29T12:36:14Z</time>
      </trkpt>
      <trkpt lat="43.14554" lon="-0.51866">
        <ele>342.85</ele>
        <time>2021-08-29T12:36:13Z</time>
      </trkpt>
      <trkpt lat="43.14559" lon="-0.51869">
        <ele>340.92</ele>
        <time>2021-08-29T12:36:12Z</time>
      </trkpt>
      <trkpt lat="43.14613" lon="-0.51893">
        <ele>340.92</ele>
        <time>2021-08-29T12:36:02Z</time>
      </trkpt>
      <trkpt lat="43.14677" lon="-0.51942">
        <ele>341.89</ele>
        <time>2021-08-29T12:35:49Z</time>
      </trkpt>
      <trkpt lat="43.1468" lon="-0.51947">
        <ele>341.89</ele>
        <time>2021-08-29T12:35:48Z</time>
      </trkpt>
      <trkpt lat="43.14695" lon="-0.51966">
        <ele>343.33</ele>
        <time>2021-08-29T12:35:44Z</time>
      </trkpt>
      <trkpt lat="43.14715" lon="-0.52002">
        <ele>343.33</ele>
        <time>2021-08-29T12:35:34Z</time>
      </trkpt>
      <trkpt lat="43.14716" lon="-0.52004">
        <ele>343.33</ele>
        <time>2021-08-29T12:35:29Z</time>
      </trkpt>
      <trkpt lat="43.14716" lon="-0.52035">
        <ele>342.85</ele>
        <time>2021-08-29T12:35:19Z</time>
      </trkpt>
      <trkpt lat="43.1471" lon="-0.52105">
        <ele>341.41</ele>
        <time>2021-08-29T12:35:06Z</time>
      </trkpt>
      <trkpt lat="43.14699" lon="-0.52169">
        <ele>339.48</ele>
        <time>2021-08-29T12:34:53Z</time>
      </trkpt>
      <trkpt lat="43.1469" lon="-0.52241">
        <ele>338.52</ele>
        <time>2021-08-29T12:34:38Z</time>
      </trkpt>
      <trkpt lat="43.14686" lon="-0.52315">
        <ele>336.12</ele>
        <time>2021-08-29T12:34:23Z</time>
      </trkpt>
      <trkpt lat="43.14686" lon="-0.52339">
        <ele>335.64</ele>
        <time>2021-08-29T12:34:19Z</time>
      </trkpt>
      <trkpt lat="43.1469" lon="-0.52441">
        <ele>334.2</ele>
        <time>2021-08-29T12:34:02Z</time>
      </trkpt>
      <trkpt lat="43.14691" lon="-0.52476">
        <ele>333.71</ele>
        <time>2021-08-29T12:33:56Z</time>
      </trkpt>
      <trkpt lat="43.14696" lon="-0.52557">
        <ele>332.27</ele>
        <time>2021-08-29T12:33:42Z</time>
      </trkpt>
      <trkpt lat="43.14697" lon="-0.52562">
        <ele>331.79</ele>
        <time>2021-08-29T12:33:41Z</time>
      </trkpt>
      <trkpt lat="43.14698" lon="-0.52567">
        <ele>331.79</ele>
        <time>2021-08-29T12:33:40Z</time>
      </trkpt>
      <trkpt lat="43.1473" lon="-0.52658">
        <ele>329.39</ele>
        <time>2021-08-29T12:33:26Z</time>
      </trkpt>
      <trkpt lat="43.14767" lon="-0.52785">
        <ele>330.83</ele>
        <time>2021-08-29T12:33:09Z</time>
      </trkpt>
      <trkpt lat="43.14797" lon="-0.52866">
        <ele>330.35</ele>
        <time>2021-08-29T12:32:57Z</time>
      </trkpt>
      <trkpt lat="43.14803" lon="-0.52877">
        <ele>330.35</ele>
        <time>2021-08-29T12:32:55Z</time>
      </trkpt>
      <trkpt lat="43.14866" lon="-0.52977">
        <ele>330.35</ele>
        <time>2021-08-29T12:32:39Z</time>
      </trkpt>
      <trkpt lat="43.14913" lon="-0.53061">
        <ele>330.35</ele>
        <time>2021-08-29T12:32:25Z</time>
      </trkpt>
      <trkpt lat="43.14929" lon="-0.53097">
        <ele>330.35</ele>
        <time>2021-08-29T12:32:15Z</time>
      </trkpt>
      <trkpt lat="43.14931" lon="-0.53099">
        <ele>330.35</ele>
        <time>2021-08-29T12:32:09Z</time>
      </trkpt>
      <trkpt lat="43.1493" lon="-0.53099">
        <ele>330.35</ele>
        <time>2021-08-29T12:31:43Z</time>
      </trkpt>
      <trkpt lat="43.14931" lon="-0.53097">
        <ele>330.83</ele>
        <time>2021-08-29T12:31:17Z</time>
      </trkpt>
      <trkpt lat="43.14931" lon="-0.53095">
        <ele>330.83</ele>
        <time>2021-08-29T12:30:46Z</time>
      </trkpt>
      <trkpt lat="43.14931" lon="-0.53097">
        <ele>330.83</ele>
        <time>2021-08-29T12:30:20Z</time>
      </trkpt>
      <trkpt lat="43.1493" lon="-0.53098">
        <ele>330.83</ele>
        <time>2021-08-29T12:29:51Z</time>
      </trkpt>
      <trkpt lat="43.14933" lon="-0.531">
        <ele>330.83</ele>
        <time>2021-08-29T12:29:40Z</time>
      </trkpt>
      <trkpt lat="43.1494" lon="-0.53116">
        <ele>329.39</ele>
        <time>2021-08-29T12:29:36Z</time>
      </trkpt>
      <trkpt lat="43.14947" lon="-0.5313">
        <ele>329.39</ele>
        <time>2021-08-29T12:29:33Z</time>
      </trkpt>
      <trkpt lat="43.14971" lon="-0.5316">
        <ele>329.87</ele>
        <time>2021-08-29T12:29:26Z</time>
      </trkpt>
      <trkpt lat="43.14979" lon="-0.53168">
        <ele>331.79</ele>
        <time>2021-08-29T12:29:24Z</time>
      </trkpt>
      <trkpt lat="43.14984" lon="-0.53171">
        <ele>331.79</ele>
        <time>2021-08-29T12:29:23Z</time>
      </trkpt>
      <trkpt lat="43.15018" lon="-0.53196">
        <ele>331.31</ele>
        <time>2021-08-29T12:29:10Z</time>
      </trkpt>
      <trkpt lat="43.15044" lon="-0.53181">
        <ele>327.95</ele>
        <time>2021-08-29T12:28:59Z</time>
      </trkpt>
      <trkpt lat="43.15047" lon="-0.5318">
        <ele>327.95</ele>
        <time>2021-08-29T12:28:58Z</time>
      </trkpt>
      <trkpt lat="43.15071" lon="-0.53172">
        <ele>324.58</ele>
        <time>2021-08-29T12:28:50Z</time>
      </trkpt>
      <trkpt lat="43.15075" lon="-0.53171">
        <ele>324.58</ele>
        <time>2021-08-29T12:28:49Z</time>
      </trkpt>
      <trkpt lat="43.15079" lon="-0.53169">
        <ele>324.58</ele>
        <time>2021-08-29T12:28:48Z</time>
      </trkpt>
      <trkpt lat="43.15136" lon="-0.53165">
        <ele>320.74</ele>
        <time>2021-08-29T12:28:36Z</time>
      </trkpt>
      <trkpt lat="43.15148" lon="-0.53162">
        <ele>320.74</ele>
        <time>2021-08-29T12:28:34Z</time>
      </trkpt>
      <trkpt lat="43.15209" lon="-0.53122">
        <ele>321.22</ele>
        <time>2021-08-29T12:28:23Z</time>
      </trkpt>
      <trkpt lat="43.15219" lon="-0.53112">
        <ele>321.7</ele>
        <time>2021-08-29T12:28:21Z</time>
      </trkpt>
      <trkpt lat="43.15246" lon="-0.53077">
        <ele>323.62</ele>
        <time>2021-08-29T12:28:15Z</time>
      </trkpt>
      <trkpt lat="43.1525" lon="-0.53072">
        <ele>323.62</ele>
        <time>2021-08-29T12:28:14Z</time>
      </trkpt>
      <trkpt lat="43.15261" lon="-0.53057">
        <ele>324.58</ele>
        <time>2021-08-29T12:28:11Z</time>
      </trkpt>
      <trkpt lat="43.15272" lon="-0.53044">
        <ele>325.06</ele>
        <time>2021-08-29T12:28:08Z</time>
      </trkpt>
      <trkpt lat="43.15276" lon="-0.5304">
        <ele>325.06</ele>
        <time>2021-08-29T12:28:07Z</time>
      </trkpt>
      <trkpt lat="43.1528" lon="-0.53037">
        <ele>325.06</ele>
        <time>2021-08-29T12:28:06Z</time>
      </trkpt>
      <trkpt lat="43.15283" lon="-0.53036">
        <ele>325.54</ele>
        <time>2021-08-29T12:28:05Z</time>
      </trkpt>
      <trkpt lat="43.15287" lon="-0.53035">
        <ele>325.54</ele>
        <time>2021-08-29T12:28:04Z</time>
      </trkpt>
      <trkpt lat="43.15293" lon="-0.53039">
        <ele>325.54</ele>
        <time>2021-08-29T12:28:03Z</time>
      </trkpt>
      <trkpt lat="43.15295" lon="-0.53043">
        <ele>325.54</ele>
        <time>2021-08-29T12:28:02Z</time>
      </trkpt>
      <trkpt lat="43.15296" lon="-0.53088">
        <ele>325.54</ele>
        <time>2021-08-29T12:27:56Z</time>
      </trkpt>
      <trkpt lat="43.15295" lon="-0.5311">
        <ele>325.54</ele>
        <time>2021-08-29T12:27:53Z</time>
      </trkpt>
      <trkpt lat="43.15294" lon="-0.53171">
        <ele>325.54</ele>
        <time>2021-08-29T12:27:45Z</time>
      </trkpt>
      <trkpt lat="43.15294" lon="-0.53179">
        <ele>325.54</ele>
        <time>2021-08-29T12:27:44Z</time>
      </trkpt>
      <trkpt lat="43.15294" lon="-0.53188">
        <ele>326.02</ele>
        <time>2021-08-29T12:27:43Z</time>
      </trkpt>
      <trkpt lat="43.15295" lon="-0.53195">
        <ele>326.02</ele>
        <time>2021-08-29T12:27:42Z</time>
      </trkpt>
      <trkpt lat="43.15297" lon="-0.53203">
        <ele>326.02</ele>
        <time>2021-08-29T12:27:41Z</time>
      </trkpt>
      <trkpt lat="43.15299" lon="-0.5321">
        <ele>326.02</ele>
        <time>2021-08-29T12:27:40Z</time>
      </trkpt>
      <trkpt lat="43.15318" lon="-0.53238">
        <ele>327.47</ele>
        <time>2021-08-29T12:27:35Z</time>
      </trkpt>
      <trkpt lat="43.15336" lon="-0.53264">
        <ele>328.91</ele>
        <time>2021-08-29T12:27:29Z</time>
      </trkpt>
      <trkpt lat="43.15339" lon="-0.53268">
        <ele>328.91</ele>
        <time>2021-08-29T12:27:28Z</time>
      </trkpt>
      <trkpt lat="43.15342" lon="-0.53271">
        <ele>328.91</ele>
        <time>2021-08-29T12:27:27Z</time>
      </trkpt>
      <trkpt lat="43.15345" lon="-0.53275">
        <ele>328.91</ele>
        <time>2021-08-29T12:27:26Z</time>
      </trkpt>
      <trkpt lat="43.15347" lon="-0.53279">
        <ele>328.91</ele>
        <time>2021-08-29T12:27:25Z</time>
      </trkpt>
      <trkpt lat="43.15349" lon="-0.53281">
        <ele>328.91</ele>
        <time>2021-08-29T12:27:24Z</time>
      </trkpt>
      <trkpt lat="43.15352" lon="-0.53284">
        <ele>328.91</ele>
        <time>2021-08-29T12:27:23Z</time>
      </trkpt>
      <trkpt lat="43.15354" lon="-0.53286">
        <ele>328.91</ele>
        <time>2021-08-29T12:27:22Z</time>
      </trkpt>
      <trkpt lat="43.15356" lon="-0.53288">
        <ele>328.91</ele>
        <time>2021-08-29T12:27:21Z</time>
      </trkpt>
      <trkpt lat="43.15357" lon="-0.53292">
        <ele>328.91</ele>
        <time>2021-08-29T12:27:20Z</time>
      </trkpt>
      <trkpt lat="43.15357" lon="-0.53295">
        <ele>328.91</ele>
        <time>2021-08-29T12:27:19Z</time>
      </trkpt>
      <trkpt lat="43.15356" lon="-0.53299">
        <ele>328.91</ele>
        <time>2021-08-29T12:27:18Z</time>
      </trkpt>
      <trkpt lat="43.15309" lon="-0.53326">
        <ele>327.95</ele>
        <time>2021-08-29T12:27:04Z</time>
      </trkpt>
      <trkpt lat="43.15267" lon="-0.53334">
        <ele>327.47</ele>
        <time>2021-08-29T12:26:53Z</time>
      </trkpt>
      <trkpt lat="43.15241" lon="-0.53342">
        <ele>326.99</ele>
        <time>2021-08-29T12:26:41Z</time>
      </trkpt>
      <trkpt lat="43.1524" lon="-0.53342">
        <ele>326.99</ele>
        <time>2021-08-29T12:26:36Z</time>
      </trkpt>
      <trkpt lat="43.15254" lon="-0.53337">
        <ele>326.99</ele>
        <time>2021-08-29T12:26:24Z</time>
      </trkpt>
      <trkpt lat="43.15257" lon="-0.53338">
        <ele>327.47</ele>
        <time>2021-08-29T12:26:17Z</time>
      </trkpt>
      <trkpt lat="43.15217" lon="-0.53381">
        <ele>325.06</ele>
        <time>2021-08-29T12:26:04Z</time>
      </trkpt>
      <trkpt lat="43.15191" lon="-0.53409">
        <ele>322.66</ele>
        <time>2021-08-29T12:25:58Z</time>
      </trkpt>
      <trkpt lat="43.15175" lon="-0.53422">
        <ele>322.66</ele>
        <time>2021-08-29T12:25:55Z</time>
      </trkpt>
      <trkpt lat="43.1517" lon="-0.53427">
        <ele>322.66</ele>
        <time>2021-08-29T12:25:54Z</time>
      </trkpt>
      <trkpt lat="43.15158" lon="-0.53444">
        <ele>322.66</ele>
        <time>2021-08-29T12:25:51Z</time>
      </trkpt>
      <trkpt lat="43.15148" lon="-0.53457">
        <ele>323.62</ele>
        <time>2021-08-29T12:25:49Z</time>
      </trkpt>
      <trkpt lat="43.15095" lon="-0.53529">
        <ele>327.47</ele>
        <time>2021-08-29T12:25:35Z</time>
      </trkpt>
      <trkpt lat="43.1505" lon="-0.53595">
        <ele>329.87</ele>
        <time>2021-08-29T12:25:21Z</time>
      </trkpt>
      <trkpt lat="43.15033" lon="-0.5362">
        <ele>331.31</ele>
        <time>2021-08-29T12:25:14Z</time>
      </trkpt>
      <trkpt lat="43.14996" lon="-0.53642">
        <ele>330.83</ele>
        <time>2021-08-29T12:25:02Z</time>
      </trkpt>
      <trkpt lat="43.14966" lon="-0.53647">
        <ele>328.91</ele>
        <time>2021-08-29T12:24:48Z</time>
      </trkpt>
      <trkpt lat="43.14947" lon="-0.53668">
        <ele>325.54</ele>
        <time>2021-08-29T12:24:32Z</time>
      </trkpt>
      <trkpt lat="43.14931" lon="-0.53707">
        <ele>322.66</ele>
        <time>2021-08-29T12:24:15Z</time>
      </trkpt>
      <trkpt lat="43.1493" lon="-0.53709">
        <ele>322.66</ele>
        <time>2021-08-29T12:24:14Z</time>
      </trkpt>
      <trkpt lat="43.14929" lon="-0.53711">
        <ele>322.66</ele>
        <time>2021-08-29T12:24:13Z</time>
      </trkpt>
      <trkpt lat="43.14928" lon="-0.53713">
        <ele>322.18</ele>
        <time>2021-08-29T12:24:12Z</time>
      </trkpt>
      <trkpt lat="43.14927" lon="-0.53716">
        <ele>321.7</ele>
        <time>2021-08-29T12:24:11Z</time>
      </trkpt>
      <trkpt lat="43.14927" lon="-0.53718">
        <ele>322.18</ele>
        <time>2021-08-29T12:24:10Z</time>
      </trkpt>
      <trkpt lat="43.14926" lon="-0.5372">
        <ele>321.7</ele>
        <time>2021-08-29T12:24:09Z</time>
      </trkpt>
      <trkpt lat="43.14925" lon="-0.53723">
        <ele>321.7</ele>
        <time>2021-08-29T12:24:08Z</time>
      </trkpt>
      <trkpt lat="43.14911" lon="-0.53739">
        <ele>319.78</ele>
        <time>2021-08-29T12:23:58Z</time>
      </trkpt>
      <trkpt lat="43.14909" lon="-0.5374">
        <ele>319.3</ele>
        <time>2021-08-29T12:23:57Z</time>
      </trkpt>
      <trkpt lat="43.14907" lon="-0.5374">
        <ele>319.3</ele>
        <time>2021-08-29T12:23:56Z</time>
      </trkpt>
      <trkpt lat="43.14905" lon="-0.53741">
        <ele>319.3</ele>
        <time>2021-08-29T12:23:55Z</time>
      </trkpt>
      <trkpt lat="43.14903" lon="-0.53742">
        <ele>318.81</ele>
        <time>2021-08-29T12:23:54Z</time>
      </trkpt>
      <trkpt lat="43.149" lon="-0.53743">
        <ele>318.33</ele>
        <time>2021-08-29T12:23:53Z</time>
      </trkpt>
      <trkpt lat="43.14887" lon="-0.5374">
        <ele>317.37</ele>
        <time>2021-08-29T12:23:47Z</time>
      </trkpt>
      <trkpt lat="43.14855" lon="-0.5373">
        <ele>314.01</ele>
        <time>2021-08-29T12:23:33Z</time>
      </trkpt>
      <trkpt lat="43.14822" lon="-0.53735">
        <ele>312.57</ele>
        <time>2021-08-29T12:23:19Z</time>
      </trkpt>
      <trkpt lat="43.14799" lon="-0.5376">
        <ele>310.16</ele>
        <time>2021-08-29T12:23:06Z</time>
      </trkpt>
      <trkpt lat="43.14777" lon="-0.53794">
        <ele>308.24</ele>
        <time>2021-08-29T12:22:52Z</time>
      </trkpt>
      <trkpt lat="43.14753" lon="-0.53819">
        <ele>305.84</ele>
        <time>2021-08-29T12:22:41Z</time>
      </trkpt>
      <trkpt lat="43.1472" lon="-0.53864">
        <ele>303.91</ele>
        <time>2021-08-29T12:22:27Z</time>
      </trkpt>
      <trkpt lat="43.14686" lon="-0.53895">
        <ele>302.95</ele>
        <time>2021-08-29T12:22:15Z</time>
      </trkpt>
      <trkpt lat="43.14664" lon="-0.53944">
        <ele>301.99</ele>
        <time>2021-08-29T12:22:01Z</time>
      </trkpt>
      <trkpt lat="43.1464" lon="-0.53997">
        <ele>300.07</ele>
        <time>2021-08-29T12:21:45Z</time>
      </trkpt>
      <trkpt lat="43.14618" lon="-0.5406">
        <ele>297.18</ele>
        <time>2021-08-29T12:21:28Z</time>
      </trkpt>
      <trkpt lat="43.146" lon="-0.54119">
        <ele>294.78</ele>
        <time>2021-08-29T12:21:13Z</time>
      </trkpt>
      <trkpt lat="43.14592" lon="-0.54134">
        <ele>293.34</ele>
        <time>2021-08-29T12:21:09Z</time>
      </trkpt>
      <trkpt lat="43.1459" lon="-0.5414">
        <ele>293.34</ele>
        <time>2021-08-29T12:21:08Z</time>
      </trkpt>
      <trkpt lat="43.14588" lon="-0.54145">
        <ele>292.86</ele>
        <time>2021-08-29T12:21:07Z</time>
      </trkpt>
      <trkpt lat="43.14585" lon="-0.54151">
        <ele>292.86</ele>
        <time>2021-08-29T12:21:06Z</time>
      </trkpt>
      <trkpt lat="43.14584" lon="-0.54155">
        <ele>291.42</ele>
        <time>2021-08-29T12:21:05Z</time>
      </trkpt>
      <trkpt lat="43.14584" lon="-0.54163">
        <ele>291.42</ele>
        <time>2021-08-29T12:21:04Z</time>
      </trkpt>
      <trkpt lat="43.14585" lon="-0.5417">
        <ele>291.42</ele>
        <time>2021-08-29T12:21:03Z</time>
      </trkpt>
      <trkpt lat="43.14587" lon="-0.54178">
        <ele>291.42</ele>
        <time>2021-08-29T12:21:02Z</time>
      </trkpt>
      <trkpt lat="43.14591" lon="-0.54185">
        <ele>292.38</ele>
        <time>2021-08-29T12:21:01Z</time>
      </trkpt>
      <trkpt lat="43.14596" lon="-0.54193">
        <ele>293.34</ele>
        <time>2021-08-29T12:21:00Z</time>
      </trkpt>
      <trkpt lat="43.146" lon="-0.54199">
        <ele>294.3</ele>
        <time>2021-08-29T12:20:59Z</time>
      </trkpt>
      <trkpt lat="43.14605" lon="-0.54213">
        <ele>295.74</ele>
        <time>2021-08-29T12:20:57Z</time>
      </trkpt>
      <trkpt lat="43.14608" lon="-0.54218">
        <ele>296.7</ele>
        <time>2021-08-29T12:20:56Z</time>
      </trkpt>
      <trkpt lat="43.14614" lon="-0.5424">
        <ele>297.67</ele>
        <time>2021-08-29T12:20:53Z</time>
      </trkpt>
      <trkpt lat="43.14627" lon="-0.54288">
        <ele>301.51</ele>
        <time>2021-08-29T12:20:45Z</time>
      </trkpt>
      <trkpt lat="43.14628" lon="-0.54292">
        <ele>301.51</ele>
        <time>2021-08-29T12:20:44Z</time>
      </trkpt>
      <trkpt lat="43.14629" lon="-0.54295">
        <ele>302.95</ele>
        <time>2021-08-29T12:20:43Z</time>
      </trkpt>
      <trkpt lat="43.14629" lon="-0.54299">
        <ele>302.95</ele>
        <time>2021-08-29T12:20:42Z</time>
      </trkpt>
      <trkpt lat="43.14631" lon="-0.54302">
        <ele>302.95</ele>
        <time>2021-08-29T12:20:41Z</time>
      </trkpt>
      <trkpt lat="43.14633" lon="-0.54303">
        <ele>302.95</ele>
        <time>2021-08-29T12:20:40Z</time>
      </trkpt>
      <trkpt lat="43.14642" lon="-0.54294">
        <ele>302.95</ele>
        <time>2021-08-29T12:20:36Z</time>
      </trkpt>
      <trkpt lat="43.14643" lon="-0.54291">
        <ele>302.95</ele>
        <time>2021-08-29T12:20:35Z</time>
      </trkpt>
      <trkpt lat="43.14644" lon="-0.54289">
        <ele>302.95</ele>
        <time>2021-08-29T12:20:34Z</time>
      </trkpt>
      <trkpt lat="43.14645" lon="-0.54287">
        <ele>302.95</ele>
        <time>2021-08-29T12:20:33Z</time>
      </trkpt>
      <trkpt lat="43.14646" lon="-0.54285">
        <ele>302.95</ele>
        <time>2021-08-29T12:20:32Z</time>
      </trkpt>
      <trkpt lat="43.14648" lon="-0.54283">
        <ele>302.95</ele>
        <time>2021-08-29T12:20:30Z</time>
      </trkpt>
      <trkpt lat="43.14647" lon="-0.54283">
        <ele>302.47</ele>
        <time>2021-08-29T12:20:27Z</time>
      </trkpt>
      <trkpt lat="43.14643" lon="-0.54291">
        <ele>301.99</ele>
        <time>2021-08-29T12:20:22Z</time>
      </trkpt>
      <trkpt lat="43.14605" lon="-0.54339">
        <ele>301.51</ele>
        <time>2021-08-29T12:20:09Z</time>
      </trkpt>
      <trkpt lat="43.14591" lon="-0.54356">
        <ele>300.55</ele>
        <time>2021-08-29T12:20:05Z</time>
      </trkpt>
      <trkpt lat="43.14588" lon="-0.54362">
        <ele>300.55</ele>
        <time>2021-08-29T12:20:04Z</time>
      </trkpt>
      <trkpt lat="43.14585" lon="-0.54367">
        <ele>300.55</ele>
        <time>2021-08-29T12:20:03Z</time>
      </trkpt>
      <trkpt lat="43.14581" lon="-0.54373">
        <ele>300.55</ele>
        <time>2021-08-29T12:20:02Z</time>
      </trkpt>
      <trkpt lat="43.14578" lon="-0.54378">
        <ele>300.55</ele>
        <time>2021-08-29T12:20:01Z</time>
      </trkpt>
      <trkpt lat="43.14574" lon="-0.54383">
        <ele>300.55</ele>
        <time>2021-08-29T12:20:00Z</time>
      </trkpt>
      <trkpt lat="43.14548" lon="-0.54414">
        <ele>300.55</ele>
        <time>2021-08-29T12:19:53Z</time>
      </trkpt>
      <trkpt lat="43.14544" lon="-0.54418">
        <ele>300.55</ele>
        <time>2021-08-29T12:19:52Z</time>
      </trkpt>
      <trkpt lat="43.1454" lon="-0.54423">
        <ele>301.51</ele>
        <time>2021-08-29T12:19:51Z</time>
      </trkpt>
      <trkpt lat="43.14524" lon="-0.5445">
        <ele>301.51</ele>
        <time>2021-08-29T12:19:46Z</time>
      </trkpt>
      <trkpt lat="43.14517" lon="-0.54464">
        <ele>301.51</ele>
        <time>2021-08-29T12:19:43Z</time>
      </trkpt>
      <trkpt lat="43.14512" lon="-0.54477">
        <ele>301.51</ele>
        <time>2021-08-29T12:19:40Z</time>
      </trkpt>
      <trkpt lat="43.14511" lon="-0.54528">
        <ele>301.03</ele>
        <time>2021-08-29T12:19:28Z</time>
      </trkpt>
      <trkpt lat="43.14508" lon="-0.54554">
        <ele>299.59</ele>
        <time>2021-08-29T12:19:22Z</time>
      </trkpt>
      <trkpt lat="43.14507" lon="-0.54563">
        <ele>300.07</ele>
        <time>2021-08-29T12:19:21Z</time>
      </trkpt>
      <trkpt lat="43.14494" lon="-0.54598">
        <ele>301.99</ele>
        <time>2021-08-29T12:19:17Z</time>
      </trkpt>
      <trkpt lat="43.14489" lon="-0.54612">
        <ele>302.47</ele>
        <time>2021-08-29T12:19:15Z</time>
      </trkpt>
      <trkpt lat="43.14486" lon="-0.54619">
        <ele>302.47</ele>
        <time>2021-08-29T12:19:14Z</time>
      </trkpt>
      <trkpt lat="43.14482" lon="-0.54624">
        <ele>303.43</ele>
        <time>2021-08-29T12:19:13Z</time>
      </trkpt>
      <trkpt lat="43.14471" lon="-0.54628">
        <ele>303.43</ele>
        <time>2021-08-29T12:19:11Z</time>
      </trkpt>
      <trkpt lat="43.14449" lon="-0.54642">
        <ele>305.36</ele>
        <time>2021-08-29T12:19:06Z</time>
      </trkpt>
      <trkpt lat="43.14415" lon="-0.54659">
        <ele>305.36</ele>
        <time>2021-08-29T12:18:55Z</time>
      </trkpt>
      <trkpt lat="43.14413" lon="-0.54659">
        <ele>305.36</ele>
        <time>2021-08-29T12:18:54Z</time>
      </trkpt>
      <trkpt lat="43.14412" lon="-0.54661">
        <ele>305.36</ele>
        <time>2021-08-29T12:18:53Z</time>
      </trkpt>
      <trkpt lat="43.14411" lon="-0.54678">
        <ele>305.36</ele>
        <time>2021-08-29T12:18:49Z</time>
      </trkpt>
      <trkpt lat="43.14412" lon="-0.54682">
        <ele>305.36</ele>
        <time>2021-08-29T12:18:48Z</time>
      </trkpt>
      <trkpt lat="43.14411" lon="-0.54687">
        <ele>305.36</ele>
        <time>2021-08-29T12:18:47Z</time>
      </trkpt>
      <trkpt lat="43.1441" lon="-0.54692">
        <ele>304.88</ele>
        <time>2021-08-29T12:18:46Z</time>
      </trkpt>
      <trkpt lat="43.14409" lon="-0.54697">
        <ele>304.88</ele>
        <time>2021-08-29T12:18:45Z</time>
      </trkpt>
      <trkpt lat="43.14406" lon="-0.54701">
        <ele>304.88</ele>
        <time>2021-08-29T12:18:44Z</time>
      </trkpt>
      <trkpt lat="43.14404" lon="-0.54706">
        <ele>304.88</ele>
        <time>2021-08-29T12:18:43Z</time>
      </trkpt>
      <trkpt lat="43.14399" lon="-0.5473">
        <ele>304.39</ele>
        <time>2021-08-29T12:18:38Z</time>
      </trkpt>
      <trkpt lat="43.14391" lon="-0.54787">
        <ele>303.43</ele>
        <time>2021-08-29T12:18:27Z</time>
      </trkpt>
      <trkpt lat="43.14396" lon="-0.5483">
        <ele>303.91</ele>
        <time>2021-08-29T12:18:18Z</time>
      </trkpt>
      <trkpt lat="43.14413" lon="-0.54857">
        <ele>302.95</ele>
        <time>2021-08-29T12:18:08Z</time>
      </trkpt>
      <trkpt lat="43.14418" lon="-0.54895">
        <ele>301.03</ele>
        <time>2021-08-29T12:17:56Z</time>
      </trkpt>
      <trkpt lat="43.14421" lon="-0.54937">
        <ele>299.59</ele>
        <time>2021-08-29T12:17:43Z</time>
      </trkpt>
      <trkpt lat="43.14429" lon="-0.54964">
        <ele>298.63</ele>
        <time>2021-08-29T12:17:32Z</time>
      </trkpt>
      <trkpt lat="43.14437" lon="-0.54981">
        <ele>298.15</ele>
        <time>2021-08-29T12:17:20Z</time>
      </trkpt>
      <trkpt lat="43.14441" lon="-0.54993">
        <ele>297.18</ele>
        <time>2021-08-29T12:17:08Z</time>
      </trkpt>
      <trkpt lat="43.14457" lon="-0.55023">
        <ele>296.22</ele>
        <time>2021-08-29T12:16:55Z</time>
      </trkpt>
      <trkpt lat="43.14471" lon="-0.55039">
        <ele>294.3</ele>
        <time>2021-08-29T12:16:42Z</time>
      </trkpt>
      <trkpt lat="43.14492" lon="-0.55051">
        <ele>291.42</ele>
        <time>2021-08-29T12:16:26Z</time>
      </trkpt>
      <trkpt lat="43.145" lon="-0.55053">
        <ele>290.46</ele>
        <time>2021-08-29T12:16:21Z</time>
      </trkpt>
      <trkpt lat="43.14515" lon="-0.55057">
        <ele>287.09</ele>
        <time>2021-08-29T12:16:10Z</time>
      </trkpt>
      <trkpt lat="43.14536" lon="-0.55061">
        <ele>285.17</ele>
        <time>2021-08-29T12:15:57Z</time>
      </trkpt>
      <trkpt lat="43.14544" lon="-0.55071">
        <ele>284.21</ele>
        <time>2021-08-29T12:15:52Z</time>
      </trkpt>
      <trkpt lat="43.14546" lon="-0.55072">
        <ele>283.73</ele>
        <time>2021-08-29T12:15:51Z</time>
      </trkpt>
      <trkpt lat="43.14549" lon="-0.55077">
        <ele>283.73</ele>
        <time>2021-08-29T12:15:48Z</time>
      </trkpt>
      <trkpt lat="43.14555" lon="-0.55089">
        <ele>282.77</ele>
        <time>2021-08-29T12:15:35Z</time>
      </trkpt>
      <trkpt lat="43.14559" lon="-0.55106">
        <ele>279.88</ele>
        <time>2021-08-29T12:15:20Z</time>
      </trkpt>
      <trkpt lat="43.14559" lon="-0.55117">
        <ele>277.48</ele>
        <time>2021-08-29T12:15:06Z</time>
      </trkpt>
      <trkpt lat="43.14555" lon="-0.5513">
        <ele>276.04</ele>
        <time>2021-08-29T12:14:47Z</time>
      </trkpt>
      <trkpt lat="43.14554" lon="-0.55137">
        <ele>275.07</ele>
        <time>2021-08-29T12:14:33Z</time>
      </trkpt>
      <trkpt lat="43.14554" lon="-0.55153">
        <ele>272.67</ele>
        <time>2021-08-29T12:14:21Z</time>
      </trkpt>
      <trkpt lat="43.14552" lon="-0.55169">
        <ele>270.27</ele>
        <time>2021-08-29T12:14:09Z</time>
      </trkpt>
      <trkpt lat="43.14553" lon="-0.55179">
        <ele>268.35</ele>
        <time>2021-08-29T12:14:04Z</time>
      </trkpt>
      <trkpt lat="43.14554" lon="-0.55181">
        <ele>267.86</ele>
        <time>2021-08-29T12:14:03Z</time>
      </trkpt>
      <trkpt lat="43.14554" lon="-0.55186">
        <ele>267.38</ele>
        <time>2021-08-29T12:14:00Z</time>
      </trkpt>
      <trkpt lat="43.14556" lon="-0.55212">
        <ele>265.46</ele>
        <time>2021-08-29T12:13:47Z</time>
      </trkpt>
      <trkpt lat="43.14556" lon="-0.55214">
        <ele>264.5</ele>
        <time>2021-08-29T12:13:46Z</time>
      </trkpt>
      <trkpt lat="43.14556" lon="-0.55217">
        <ele>264.5</ele>
        <time>2021-08-29T12:13:45Z</time>
      </trkpt>
      <trkpt lat="43.14556" lon="-0.5522">
        <ele>264.5</ele>
        <time>2021-08-29T12:13:44Z</time>
      </trkpt>
      <trkpt lat="43.14557" lon="-0.55222">
        <ele>263.54</ele>
        <time>2021-08-29T12:13:43Z</time>
      </trkpt>
      <trkpt lat="43.14557" lon="-0.55224">
        <ele>263.54</ele>
        <time>2021-08-29T12:13:42Z</time>
      </trkpt>
      <trkpt lat="43.14558" lon="-0.55226">
        <ele>263.54</ele>
        <time>2021-08-29T12:13:41Z</time>
      </trkpt>
      <trkpt lat="43.14559" lon="-0.55227">
        <ele>263.54</ele>
        <time>2021-08-29T12:13:40Z</time>
      </trkpt>
      <trkpt lat="43.14559" lon="-0.55229">
        <ele>263.54</ele>
        <time>2021-08-29T12:13:39Z</time>
      </trkpt>
      <trkpt lat="43.14565" lon="-0.55246">
        <ele>263.54</ele>
        <time>2021-08-29T12:13:28Z</time>
      </trkpt>
      <trkpt lat="43.14567" lon="-0.55247">
        <ele>263.54</ele>
        <time>2021-08-29T12:13:26Z</time>
      </trkpt>
      <trkpt lat="43.14566" lon="-0.55255">
        <ele>263.54</ele>
        <time>2021-08-29T12:13:06Z</time>
      </trkpt>
      <trkpt lat="43.14564" lon="-0.55256">
        <ele>263.54</ele>
        <time>2021-08-29T12:12:46Z</time>
      </trkpt>
      <trkpt lat="43.14534" lon="-0.55244">
        <ele>264.02</ele>
        <time>2021-08-29T12:12:35Z</time>
      </trkpt>
      <trkpt lat="43.14522" lon="-0.55246">
        <ele>264.02</ele>
        <time>2021-08-29T12:12:32Z</time>
      </trkpt>
      <trkpt lat="43.14488" lon="-0.55254">
        <ele>265.94</ele>
        <time>2021-08-29T12:12:22Z</time>
      </trkpt>
      <trkpt lat="43.14484" lon="-0.5525">
        <ele>265.94</ele>
        <time>2021-08-29T12:12:20Z</time>
      </trkpt>
      <trkpt lat="43.1448" lon="-0.55249">
        <ele>265.94</ele>
        <time>2021-08-29T12:12:18Z</time>
      </trkpt>
      <trkpt lat="43.14469" lon="-0.55247">
        <ele>267.86</ele>
        <time>2021-08-29T12:12:15Z</time>
      </trkpt>
      <trkpt lat="43.14452" lon="-0.55241">
        <ele>267.86</ele>
        <time>2021-08-29T12:12:07Z</time>
      </trkpt>
      <trkpt lat="43.14442" lon="-0.55228">
        <ele>270.75</ele>
        <time>2021-08-29T12:12:01Z</time>
      </trkpt>
      <trkpt lat="43.14429" lon="-0.55222">
        <ele>269.79</ele>
        <time>2021-08-29T12:11:51Z</time>
      </trkpt>
      <trkpt lat="43.14429" lon="-0.55229">
        <ele>267.86</ele>
        <time>2021-08-29T12:11:48Z</time>
      </trkpt>
      <trkpt lat="43.14425" lon="-0.55243">
        <ele>268.35</ele>
        <time>2021-08-29T12:11:42Z</time>
      </trkpt>
      <trkpt lat="43.14417" lon="-0.5525">
        <ele>268.83</ele>
        <time>2021-08-29T12:11:37Z</time>
      </trkpt>
      <trkpt lat="43.14414" lon="-0.55251">
        <ele>270.27</ele>
        <time>2021-08-29T12:11:35Z</time>
      </trkpt>
      <trkpt lat="43.14401" lon="-0.55257">
        <ele>270.27</ele>
        <time>2021-08-29T12:11:23Z</time>
      </trkpt>
      <trkpt lat="43.14396" lon="-0.55261">
        <ele>269.31</ele>
        <time>2021-08-29T12:11:19Z</time>
      </trkpt>
      <trkpt lat="43.14389" lon="-0.55259">
        <ele>270.75</ele>
        <time>2021-08-29T12:11:16Z</time>
      </trkpt>
      <trkpt lat="43.1437" lon="-0.55263">
        <ele>271.23</ele>
        <time>2021-08-29T12:11:07Z</time>
      </trkpt>
      <trkpt lat="43.14358" lon="-0.55266">
        <ele>273.15</ele>
        <time>2021-08-29T12:11:02Z</time>
      </trkpt>
      <trkpt lat="43.14334" lon="-0.55275">
        <ele>275.56</ele>
        <time>2021-08-29T12:10:53Z</time>
      </trkpt>
      <trkpt lat="43.14305" lon="-0.55297">
        <ele>277.96</ele>
        <time>2021-08-29T12:10:43Z</time>
      </trkpt>
      <trkpt lat="43.14285" lon="-0.55316">
        <ele>276.52</ele>
        <time>2021-08-29T12:10:32Z</time>
      </trkpt>
      <trkpt lat="43.14283" lon="-0.55318">
        <ele>276.52</ele>
        <time>2021-08-29T12:10:29Z</time>
      </trkpt>
      <trkpt lat="43.14281" lon="-0.55319">
        <ele>276.52</ele>
        <time>2021-08-29T12:10:27Z</time>
      </trkpt>
      <trkpt lat="43.14277" lon="-0.55323">
        <ele>276.04</ele>
        <time>2021-08-29T12:10:24Z</time>
      </trkpt>
      <trkpt lat="43.14273" lon="-0.55327">
        <ele>275.07</ele>
        <time>2021-08-29T12:10:21Z</time>
      </trkpt>
      <trkpt lat="43.14272" lon="-0.55328">
        <ele>275.07</ele>
        <time>2021-08-29T12:10:20Z</time>
      </trkpt>
      <trkpt lat="43.14255" lon="-0.55342">
        <ele>274.11</ele>
        <time>2021-08-29T12:10:11Z</time>
      </trkpt>
      <trkpt lat="43.14248" lon="-0.55352">
        <ele>274.11</ele>
        <time>2021-08-29T12:10:07Z</time>
      </trkpt>
      <trkpt lat="43.14227" lon="-0.55373">
        <ele>273.63</ele>
        <time>2021-08-29T12:09:55Z</time>
      </trkpt>
      <trkpt lat="43.14224" lon="-0.55379">
        <ele>272.19</ele>
        <time>2021-08-29T12:09:51Z</time>
      </trkpt>
      <trkpt lat="43.14222" lon="-0.55381">
        <ele>272.19</ele>
        <time>2021-08-29T12:09:50Z</time>
      </trkpt>
      <trkpt lat="43.14207" lon="-0.55397">
        <ele>272.19</ele>
        <time>2021-08-29T12:09:42Z</time>
      </trkpt>
      <trkpt lat="43.14205" lon="-0.554">
        <ele>272.19</ele>
        <time>2021-08-29T12:09:41Z</time>
      </trkpt>
      <trkpt lat="43.14202" lon="-0.55401">
        <ele>272.19</ele>
        <time>2021-08-29T12:09:40Z</time>
      </trkpt>
      <trkpt lat="43.142" lon="-0.55402">
        <ele>272.19</ele>
        <time>2021-08-29T12:09:39Z</time>
      </trkpt>
      <trkpt lat="43.14199" lon="-0.55403">
        <ele>272.19</ele>
        <time>2021-08-29T12:09:38Z</time>
      </trkpt>
      <trkpt lat="43.14198" lon="-0.55405">
        <ele>272.19</ele>
        <time>2021-08-29T12:09:37Z</time>
      </trkpt>
      <trkpt lat="43.14197" lon="-0.55409">
        <ele>271.71</ele>
        <time>2021-08-29T12:09:35Z</time>
      </trkpt>
      <trkpt lat="43.14197" lon="-0.55411">
        <ele>271.23</ele>
        <time>2021-08-29T12:09:34Z</time>
      </trkpt>
      <trkpt lat="43.14196" lon="-0.5545">
        <ele>268.35</ele>
        <time>2021-08-29T12:09:22Z</time>
      </trkpt>
      <trkpt lat="43.14176" lon="-0.55494">
        <ele>266.42</ele>
        <time>2021-08-29T12:09:09Z</time>
      </trkpt>
      <trkpt lat="43.14153" lon="-0.55534">
        <ele>265.46</ele>
        <time>2021-08-29T12:08:56Z</time>
      </trkpt>
      <trkpt lat="43.14147" lon="-0.55541">
        <ele>264.98</ele>
        <time>2021-08-29T12:08:51Z</time>
      </trkpt>
      <trkpt lat="43.14121" lon="-0.5554">
        <ele>263.06</ele>
        <time>2021-08-29T12:08:40Z</time>
      </trkpt>
      <trkpt lat="43.14103" lon="-0.55518">
        <ele>263.54</ele>
        <time>2021-08-29T12:08:31Z</time>
      </trkpt>
      <trkpt lat="43.141" lon="-0.55513">
        <ele>264.02</ele>
        <time>2021-08-29T12:08:29Z</time>
      </trkpt>
      <trkpt lat="43.14099" lon="-0.55495">
        <ele>267.86</ele>
        <time>2021-08-29T12:08:24Z</time>
      </trkpt>
      <trkpt lat="43.14097" lon="-0.55489">
        <ele>268.35</ele>
        <time>2021-08-29T12:08:22Z</time>
      </trkpt>
      <trkpt lat="43.1409" lon="-0.55482">
        <ele>266.42</ele>
        <time>2021-08-29T12:08:18Z</time>
      </trkpt>
      <trkpt lat="43.14087" lon="-0.55477">
        <ele>266.42</ele>
        <time>2021-08-29T12:08:15Z</time>
      </trkpt>
      <trkpt lat="43.14077" lon="-0.55456">
        <ele>266.9</ele>
        <time>2021-08-29T12:08:08Z</time>
      </trkpt>
      <trkpt lat="43.14066" lon="-0.55431">
        <ele>266.9</ele>
        <time>2021-08-29T12:07:59Z</time>
      </trkpt>
      <trkpt lat="43.14064" lon="-0.55421">
        <ele>269.31</ele>
        <time>2021-08-29T12:07:56Z</time>
      </trkpt>
      <trkpt lat="43.14065" lon="-0.55403">
        <ele>269.31</ele>
        <time>2021-08-29T12:07:51Z</time>
      </trkpt>
      <trkpt lat="43.14053" lon="-0.55379">
        <ele>268.83</ele>
        <time>2021-08-29T12:07:42Z</time>
      </trkpt>
      <trkpt lat="43.14051" lon="-0.55371">
        <ele>268.83</ele>
        <time>2021-08-29T12:07:40Z</time>
      </trkpt>
      <trkpt lat="43.14047" lon="-0.55351">
        <ele>268.83</ele>
        <time>2021-08-29T12:07:34Z</time>
      </trkpt>
      <trkpt lat="43.14044" lon="-0.55343">
        <ele>267.38</ele>
        <time>2021-08-29T12:07:31Z</time>
      </trkpt>
      <trkpt lat="43.1404" lon="-0.55337">
        <ele>268.83</ele>
        <time>2021-08-29T12:07:29Z</time>
      </trkpt>
      <trkpt lat="43.1404" lon="-0.55327">
        <ele>268.83</ele>
        <time>2021-08-29T12:07:26Z</time>
      </trkpt>
      <trkpt lat="43.14044" lon="-0.55317">
        <ele>268.83</ele>
        <time>2021-08-29T12:07:22Z</time>
      </trkpt>
      <trkpt lat="43.14044" lon="-0.55297">
        <ele>267.86</ele>
        <time>2021-08-29T12:07:15Z</time>
      </trkpt>
      <trkpt lat="43.14046" lon="-0.5529">
        <ele>267.86</ele>
        <time>2021-08-29T12:07:13Z</time>
      </trkpt>
      <trkpt lat="43.1406" lon="-0.55266">
        <ele>268.35</ele>
        <time>2021-08-29T12:07:07Z</time>
      </trkpt>
      <trkpt lat="43.14067" lon="-0.55264">
        <ele>270.27</ele>
        <time>2021-08-29T12:07:05Z</time>
      </trkpt>
      <trkpt lat="43.14076" lon="-0.55259">
        <ele>270.75</ele>
        <time>2021-08-29T12:07:01Z</time>
      </trkpt>
      <trkpt lat="43.14082" lon="-0.55247">
        <ele>270.27</ele>
        <time>2021-08-29T12:06:57Z</time>
      </trkpt>
      <trkpt lat="43.14101" lon="-0.55215">
        <ele>269.31</ele>
        <time>2021-08-29T12:06:45Z</time>
      </trkpt>
      <trkpt lat="43.14107" lon="-0.552">
        <ele>268.35</ele>
        <time>2021-08-29T12:06:38Z</time>
      </trkpt>
      <trkpt lat="43.1411" lon="-0.55187">
        <ele>266.9</ele>
        <time>2021-08-29T12:06:32Z</time>
      </trkpt>
      <trkpt lat="43.14116" lon="-0.55153">
        <ele>264.02</ele>
        <time>2021-08-29T12:06:22Z</time>
      </trkpt>
      <trkpt lat="43.1412" lon="-0.55142">
        <ele>263.06</ele>
        <time>2021-08-29T12:06:18Z</time>
      </trkpt>
      <trkpt lat="43.14131" lon="-0.55098">
        <ele>263.06</ele>
        <time>2021-08-29T12:06:05Z</time>
      </trkpt>
      <trkpt lat="43.1414" lon="-0.55069">
        <ele>263.54</ele>
        <time>2021-08-29T12:05:58Z</time>
      </trkpt>
      <trkpt lat="43.14146" lon="-0.55045">
        <ele>264.5</ele>
        <time>2021-08-29T12:05:47Z</time>
      </trkpt>
      <trkpt lat="43.14144" lon="-0.55012">
        <ele>264.98</ele>
        <time>2021-08-29T12:05:36Z</time>
      </trkpt>
      <trkpt lat="43.14129" lon="-0.54979">
        <ele>266.42</ele>
        <time>2021-08-29T12:05:25Z</time>
      </trkpt>
      <trkpt lat="43.14118" lon="-0.54967">
        <ele>266.42</ele>
        <time>2021-08-29T12:05:21Z</time>
      </trkpt>
      <trkpt lat="43.14101" lon="-0.54948">
        <ele>267.86</ele>
        <time>2021-08-29T12:05:14Z</time>
      </trkpt>
      <trkpt lat="43.1407" lon="-0.54936">
        <ele>269.31</ele>
        <time>2021-08-29T12:05:03Z</time>
      </trkpt>
      <trkpt lat="43.14055" lon="-0.54931">
        <ele>269.31</ele>
        <time>2021-08-29T12:04:57Z</time>
      </trkpt>
      <trkpt lat="43.14042" lon="-0.54924">
        <ele>269.31</ele>
        <time>2021-08-29T12:04:52Z</time>
      </trkpt>
      <trkpt lat="43.14028" lon="-0.54917">
        <ele>266.9</ele>
        <time>2021-08-29T12:04:43Z</time>
      </trkpt>
      <trkpt lat="43.14023" lon="-0.54917">
        <ele>265.46</ele>
        <time>2021-08-29T12:04:40Z</time>
      </trkpt>
      <trkpt lat="43.14009" lon="-0.54936">
        <ele>268.35</ele>
        <time>2021-08-29T12:04:31Z</time>
      </trkpt>
      <trkpt lat="43.13996" lon="-0.54938">
        <ele>269.79</ele>
        <time>2021-08-29T12:04:26Z</time>
      </trkpt>
      <trkpt lat="43.13974" lon="-0.54922">
        <ele>270.75</ele>
        <time>2021-08-29T12:04:20Z</time>
      </trkpt>
      <trkpt lat="43.13956" lon="-0.54901">
        <ele>273.63</ele>
        <time>2021-08-29T12:04:15Z</time>
      </trkpt>
      <trkpt lat="43.13925" lon="-0.54891">
        <ele>274.59</ele>
        <time>2021-08-29T12:04:08Z</time>
      </trkpt>
      <trkpt lat="43.13915" lon="-0.54874">
        <ele>276.04</ele>
        <time>2021-08-29T12:04:05Z</time>
      </trkpt>
      <trkpt lat="43.13913" lon="-0.54867">
        <ele>276.52</ele>
        <time>2021-08-29T12:04:04Z</time>
      </trkpt>
      <trkpt lat="43.13904" lon="-0.54853">
        <ele>277.96</ele>
        <time>2021-08-29T12:04:00Z</time>
      </trkpt>
      <trkpt lat="43.13893" lon="-0.54848">
        <ele>278.44</ele>
        <time>2021-08-29T12:03:57Z</time>
      </trkpt>
      <trkpt lat="43.13883" lon="-0.54842">
        <ele>277</ele>
        <time>2021-08-29T12:03:53Z</time>
      </trkpt>
      <trkpt lat="43.13873" lon="-0.54834">
        <ele>278.44</ele>
        <time>2021-08-29T12:03:50Z</time>
      </trkpt>
      <trkpt lat="43.13866" lon="-0.54828">
        <ele>279.88</ele>
        <time>2021-08-29T12:03:48Z</time>
      </trkpt>
      <trkpt lat="43.13848" lon="-0.54812">
        <ele>279.88</ele>
        <time>2021-08-29T12:03:41Z</time>
      </trkpt>
      <trkpt lat="43.13835" lon="-0.54808">
        <ele>278.44</ele>
        <time>2021-08-29T12:03:37Z</time>
      </trkpt>
      <trkpt lat="43.13811" lon="-0.54798">
        <ele>279.4</ele>
        <time>2021-08-29T12:03:30Z</time>
      </trkpt>
      <trkpt lat="43.13795" lon="-0.54787">
        <ele>279.88</ele>
        <time>2021-08-29T12:03:24Z</time>
      </trkpt>
      <trkpt lat="43.13791" lon="-0.54776">
        <ele>280.36</ele>
        <time>2021-08-29T12:03:21Z</time>
      </trkpt>
      <trkpt lat="43.13791" lon="-0.5477">
        <ele>281.32</ele>
        <time>2021-08-29T12:03:19Z</time>
      </trkpt>
      <trkpt lat="43.1379" lon="-0.54768">
        <ele>281.32</ele>
        <time>2021-08-29T12:03:16Z</time>
      </trkpt>
      <trkpt lat="43.1379" lon="-0.54753">
        <ele>282.77</ele>
        <time>2021-08-29T12:03:09Z</time>
      </trkpt>
      <trkpt lat="43.13786" lon="-0.54745">
        <ele>282.77</ele>
        <time>2021-08-29T12:03:04Z</time>
      </trkpt>
      <trkpt lat="43.1377" lon="-0.54717">
        <ele>284.21</ele>
        <time>2021-08-29T12:02:58Z</time>
      </trkpt>
      <trkpt lat="43.13769" lon="-0.54687">
        <ele>285.17</ele>
        <time>2021-08-29T12:02:54Z</time>
      </trkpt>
      <trkpt lat="43.1377" lon="-0.54675">
        <ele>286.13</ele>
        <time>2021-08-29T12:02:52Z</time>
      </trkpt>
      <trkpt lat="43.13771" lon="-0.54661">
        <ele>286.13</ele>
        <time>2021-08-29T12:02:49Z</time>
      </trkpt>
      <trkpt lat="43.13776" lon="-0.54643">
        <ele>288.05</ele>
        <time>2021-08-29T12:02:46Z</time>
      </trkpt>
      <trkpt lat="43.1379" lon="-0.54597">
        <ele>289.49</ele>
        <time>2021-08-29T12:02:40Z</time>
      </trkpt>
      <trkpt lat="43.13801" lon="-0.54566">
        <ele>291.42</ele>
        <time>2021-08-29T12:02:36Z</time>
      </trkpt>
      <trkpt lat="43.13815" lon="-0.54547">
        <ele>293.34</ele>
        <time>2021-08-29T12:02:33Z</time>
      </trkpt>
      <trkpt lat="43.13828" lon="-0.54534">
        <ele>294.78</ele>
        <time>2021-08-29T12:02:30Z</time>
      </trkpt>
      <trkpt lat="43.13853" lon="-0.54507">
        <ele>296.7</ele>
        <time>2021-08-29T12:02:23Z</time>
      </trkpt>
      <trkpt lat="43.13893" lon="-0.54502">
        <ele>298.15</ele>
        <time>2021-08-29T12:02:13Z</time>
      </trkpt>
      <trkpt lat="43.13901" lon="-0.54496">
        <ele>297.67</ele>
        <time>2021-08-29T12:02:11Z</time>
      </trkpt>
      <trkpt lat="43.13905" lon="-0.54493">
        <ele>297.67</ele>
        <time>2021-08-29T12:02:10Z</time>
      </trkpt>
      <trkpt lat="43.13939" lon="-0.5448">
        <ele>297.67</ele>
        <time>2021-08-29T12:02:01Z</time>
      </trkpt>
      <trkpt lat="43.13944" lon="-0.54472">
        <ele>297.67</ele>
        <time>2021-08-29T12:01:58Z</time>
      </trkpt>
      <trkpt lat="43.13961" lon="-0.54456">
        <ele>299.59</ele>
        <time>2021-08-29T12:01:52Z</time>
      </trkpt>
      <trkpt lat="43.13986" lon="-0.54424">
        <ele>300.55</ele>
        <time>2021-08-29T12:01:41Z</time>
      </trkpt>
      <trkpt lat="43.13991" lon="-0.54407">
        <ele>301.51</ele>
        <time>2021-08-29T12:01:34Z</time>
      </trkpt>
      <trkpt lat="43.13991" lon="-0.54405">
        <ele>301.99</ele>
        <time>2021-08-29T12:01:33Z</time>
      </trkpt>
      <trkpt lat="43.13993" lon="-0.54407">
        <ele>301.51</ele>
        <time>2021-08-29T12:01:09Z</time>
      </trkpt>
      <trkpt lat="43.13989" lon="-0.54405">
        <ele>301.51</ele>
        <time>2021-08-29T12:00:41Z</time>
      </trkpt>
      <trkpt lat="43.13993" lon="-0.54411">
        <ele>301.51</ele>
        <time>2021-08-29T12:00:14Z</time>
      </trkpt>
      <trkpt lat="43.13996" lon="-0.54411">
        <ele>301.51</ele>
        <time>2021-08-29T11:59:53Z</time>
      </trkpt>
      <trkpt lat="43.13994" lon="-0.54411">
        <ele>301.51</ele>
        <time>2021-08-29T11:59:31Z</time>
      </trkpt>
      <trkpt lat="43.13995" lon="-0.54409">
        <ele>301.51</ele>
        <time>2021-08-29T11:59:06Z</time>
      </trkpt>
      <trkpt lat="43.13996" lon="-0.54405">
        <ele>301.51</ele>
        <time>2021-08-29T11:58:42Z</time>
      </trkpt>
      <trkpt lat="43.13996" lon="-0.54408">
        <ele>301.03</ele>
        <time>2021-08-29T11:58:19Z</time>
      </trkpt>
      <trkpt lat="43.13993" lon="-0.54408">
        <ele>301.03</ele>
        <time>2021-08-29T11:57:51Z</time>
      </trkpt>
      <trkpt lat="43.13994" lon="-0.54408">
        <ele>301.03</ele>
        <time>2021-08-29T11:57:16Z</time>
      </trkpt>
      <trkpt lat="43.13997" lon="-0.54397">
        <ele>301.03</ele>
        <time>2021-08-29T11:57:02Z</time>
      </trkpt>
      <trkpt lat="43.13999" lon="-0.54366">
        <ele>301.03</ele>
        <time>2021-08-29T11:56:51Z</time>
      </trkpt>
      <trkpt lat="43.13999" lon="-0.54337">
        <ele>300.07</ele>
        <time>2021-08-29T11:56:39Z</time>
      </trkpt>
      <trkpt lat="43.13995" lon="-0.54304">
        <ele>297.67</ele>
        <time>2021-08-29T11:56:23Z</time>
      </trkpt>
      <trkpt lat="43.13994" lon="-0.54303">
        <ele>297.67</ele>
        <time>2021-08-29T11:56:21Z</time>
      </trkpt>
      <trkpt lat="43.13993" lon="-0.5429">
        <ele>296.22</ele>
        <time>2021-08-29T11:56:07Z</time>
      </trkpt>
      <trkpt lat="43.13987" lon="-0.54273">
        <ele>293.34</ele>
        <time>2021-08-29T11:55:50Z</time>
      </trkpt>
      <trkpt lat="43.13976" lon="-0.54262">
        <ele>290.46</ele>
        <time>2021-08-29T11:55:33Z</time>
      </trkpt>
      <trkpt lat="43.13969" lon="-0.54253">
        <ele>288.53</ele>
        <time>2021-08-29T11:55:20Z</time>
      </trkpt>
      <trkpt lat="43.13962" lon="-0.54244">
        <ele>287.57</ele>
        <time>2021-08-29T11:55:06Z</time>
      </trkpt>
      <trkpt lat="43.13951" lon="-0.54243">
        <ele>285.17</ele>
        <time>2021-08-29T11:54:52Z</time>
      </trkpt>
      <trkpt lat="43.13947" lon="-0.54244">
        <ele>284.21</ele>
        <time>2021-08-29T11:54:48Z</time>
      </trkpt>
      <trkpt lat="43.13941" lon="-0.54247">
        <ele>282.28</ele>
        <time>2021-08-29T11:54:43Z</time>
      </trkpt>
      <trkpt lat="43.13931" lon="-0.54247">
        <ele>280.36</ele>
        <time>2021-08-29T11:54:35Z</time>
      </trkpt>
      <trkpt lat="43.13922" lon="-0.5425">
        <ele>277.96</ele>
        <time>2021-08-29T11:54:29Z</time>
      </trkpt>
      <trkpt lat="43.13918" lon="-0.54259">
        <ele>277.96</ele>
        <time>2021-08-29T11:54:23Z</time>
      </trkpt>
      <trkpt lat="43.13917" lon="-0.5426">
        <ele>277.96</ele>
        <time>2021-08-29T11:54:20Z</time>
      </trkpt>
      <trkpt lat="43.13921" lon="-0.5425">
        <ele>278.44</ele>
        <time>2021-08-29T11:54:09Z</time>
      </trkpt>
      <trkpt lat="43.13924" lon="-0.54237">
        <ele>278.92</ele>
        <time>2021-08-29T11:54:04Z</time>
      </trkpt>
      <trkpt lat="43.13926" lon="-0.54237">
        <ele>278.92</ele>
        <time>2021-08-29T11:53:59Z</time>
      </trkpt>
      <trkpt lat="43.13926" lon="-0.54232">
        <ele>280.36</ele>
        <time>2021-08-29T11:53:52Z</time>
      </trkpt>
      <trkpt lat="43.13927" lon="-0.54213">
        <ele>281.8</ele>
        <time>2021-08-29T11:53:49Z</time>
      </trkpt>
      <trkpt lat="43.13929" lon="-0.54197">
        <ele>284.21</ele>
        <time>2021-08-29T11:53:47Z</time>
      </trkpt>
      <trkpt lat="43.13947" lon="-0.54169">
        <ele>287.57</ele>
        <time>2021-08-29T11:53:42Z</time>
      </trkpt>
      <trkpt lat="43.13951" lon="-0.54164">
        <ele>289.01</ele>
        <time>2021-08-29T11:53:41Z</time>
      </trkpt>
      <trkpt lat="43.13962" lon="-0.54152">
        <ele>291.42</ele>
        <time>2021-08-29T11:53:38Z</time>
      </trkpt>
      <trkpt lat="43.13971" lon="-0.54117">
        <ele>290.94</ele>
        <time>2021-08-29T11:53:29Z</time>
      </trkpt>
      <trkpt lat="43.1397" lon="-0.54102">
        <ele>289.49</ele>
        <time>2021-08-29T11:53:24Z</time>
      </trkpt>
      <trkpt lat="43.13974" lon="-0.54087">
        <ele>288.53</ele>
        <time>2021-08-29T11:53:20Z</time>
      </trkpt>
      <trkpt lat="43.13983" lon="-0.54074">
        <ele>287.09</ele>
        <time>2021-08-29T11:53:16Z</time>
      </trkpt>
      <trkpt lat="43.13984" lon="-0.54071">
        <ele>287.09</ele>
        <time>2021-08-29T11:53:15Z</time>
      </trkpt>
      <trkpt lat="43.1399" lon="-0.5404">
        <ele>287.09</ele>
        <time>2021-08-29T11:53:08Z</time>
      </trkpt>
      <trkpt lat="43.14" lon="-0.54028">
        <ele>289.01</ele>
        <time>2021-08-29T11:53:04Z</time>
      </trkpt>
      <trkpt lat="43.14003" lon="-0.54016">
        <ele>290.94</ele>
        <time>2021-08-29T11:53:01Z</time>
      </trkpt>
      <trkpt lat="43.13998" lon="-0.53995">
        <ele>293.34</ele>
        <time>2021-08-29T11:52:56Z</time>
      </trkpt>
      <trkpt lat="43.13997" lon="-0.53961">
        <ele>294.3</ele>
        <time>2021-08-29T11:52:49Z</time>
      </trkpt>
      <trkpt lat="43.14006" lon="-0.53946">
        <ele>295.74</ele>
        <time>2021-08-29T11:52:46Z</time>
      </trkpt>
      <trkpt lat="43.14011" lon="-0.53937">
        <ele>297.18</ele>
        <time>2021-08-29T11:52:44Z</time>
      </trkpt>
      <trkpt lat="43.14028" lon="-0.53901">
        <ele>299.59</ele>
        <time>2021-08-29T11:52:37Z</time>
      </trkpt>
      <trkpt lat="43.14048" lon="-0.53852">
        <ele>301.03</ele>
        <time>2021-08-29T11:52:28Z</time>
      </trkpt>
      <trkpt lat="43.14054" lon="-0.53828">
        <ele>301.99</ele>
        <time>2021-08-29T11:52:24Z</time>
      </trkpt>
      <trkpt lat="43.1406" lon="-0.53786">
        <ele>303.43</ele>
        <time>2021-08-29T11:52:15Z</time>
      </trkpt>
      <trkpt lat="43.14064" lon="-0.53775">
        <ele>304.88</ele>
        <time>2021-08-29T11:52:12Z</time>
      </trkpt>
      <trkpt lat="43.14064" lon="-0.53765">
        <ele>304.88</ele>
        <time>2021-08-29T11:52:10Z</time>
      </trkpt>
      <trkpt lat="43.14063" lon="-0.53728">
        <ele>303.43</ele>
        <time>2021-08-29T11:52:00Z</time>
      </trkpt>
      <trkpt lat="43.14042" lon="-0.53696">
        <ele>301.51</ele>
        <time>2021-08-29T11:51:47Z</time>
      </trkpt>
      <trkpt lat="43.14052" lon="-0.53677">
        <ele>301.99</ele>
        <time>2021-08-29T11:51:39Z</time>
      </trkpt>
      <trkpt lat="43.14071" lon="-0.53686">
        <ele>302.95</ele>
        <time>2021-08-29T11:51:33Z</time>
      </trkpt>
      <trkpt lat="43.14093" lon="-0.53698">
        <ele>303.91</ele>
        <time>2021-08-29T11:51:21Z</time>
      </trkpt>
      <trkpt lat="43.14102" lon="-0.53688">
        <ele>300.07</ele>
        <time>2021-08-29T11:51:10Z</time>
      </trkpt>
      <trkpt lat="43.14087" lon="-0.53664">
        <ele>298.15</ele>
        <time>2021-08-29T11:50:59Z</time>
      </trkpt>
      <trkpt lat="43.14084" lon="-0.53654">
        <ele>297.67</ele>
        <time>2021-08-29T11:50:56Z</time>
      </trkpt>
      <trkpt lat="43.14074" lon="-0.53619">
        <ele>295.74</ele>
        <time>2021-08-29T11:50:42Z</time>
      </trkpt>
      <trkpt lat="43.14076" lon="-0.53593">
        <ele>294.3</ele>
        <time>2021-08-29T11:50:32Z</time>
      </trkpt>
      <trkpt lat="43.14082" lon="-0.53583">
        <ele>294.3</ele>
        <time>2021-08-29T11:50:28Z</time>
      </trkpt>
      <trkpt lat="43.14084" lon="-0.53557">
        <ele>293.82</ele>
        <time>2021-08-29T11:50:16Z</time>
      </trkpt>
      <trkpt lat="43.1408" lon="-0.53544">
        <ele>291.42</ele>
        <time>2021-08-29T11:50:10Z</time>
      </trkpt>
      <trkpt lat="43.14076" lon="-0.53536">
        <ele>289.49</ele>
        <time>2021-08-29T11:50:05Z</time>
      </trkpt>
      <trkpt lat="43.1406" lon="-0.53537">
        <ele>285.65</ele>
        <time>2021-08-29T11:49:55Z</time>
      </trkpt>
      <trkpt lat="43.14053" lon="-0.53547">
        <ele>285.65</ele>
        <time>2021-08-29T11:49:51Z</time>
      </trkpt>
      <trkpt lat="43.14041" lon="-0.53559">
        <ele>286.61</ele>
        <time>2021-08-29T11:49:46Z</time>
      </trkpt>
      <trkpt lat="43.14034" lon="-0.53562">
        <ele>288.05</ele>
        <time>2021-08-29T11:49:44Z</time>
      </trkpt>
      <trkpt lat="43.14014" lon="-0.53558">
        <ele>291.42</ele>
        <time>2021-08-29T11:49:37Z</time>
      </trkpt>
      <trkpt lat="43.13998" lon="-0.53566">
        <ele>291.42</ele>
        <time>2021-08-29T11:49:31Z</time>
      </trkpt>
      <trkpt lat="43.13963" lon="-0.53567">
        <ele>291.42</ele>
        <time>2021-08-29T11:49:21Z</time>
      </trkpt>
      <trkpt lat="43.13937" lon="-0.53564">
        <ele>292.86</ele>
        <time>2021-08-29T11:49:15Z</time>
      </trkpt>
      <trkpt lat="43.13908" lon="-0.53558">
        <ele>294.78</ele>
        <time>2021-08-29T11:49:10Z</time>
      </trkpt>
      <trkpt lat="43.13899" lon="-0.53558">
        <ele>296.7</ele>
        <time>2021-08-29T11:49:08Z</time>
      </trkpt>
      <trkpt lat="43.13875" lon="-0.53543">
        <ele>296.7</ele>
        <time>2021-08-29T11:48:59Z</time>
      </trkpt>
      <trkpt lat="43.13857" lon="-0.53539">
        <ele>295.26</ele>
        <time>2021-08-29T11:48:51Z</time>
      </trkpt>
      <trkpt lat="43.1384" lon="-0.53528">
        <ele>295.26</ele>
        <time>2021-08-29T11:48:39Z</time>
      </trkpt>
      <trkpt lat="43.13833" lon="-0.53519">
        <ele>294.78</ele>
        <time>2021-08-29T11:48:32Z</time>
      </trkpt>
      <trkpt lat="43.13823" lon="-0.53532">
        <ele>293.34</ele>
        <time>2021-08-29T11:48:23Z</time>
      </trkpt>
      <trkpt lat="43.13821" lon="-0.53535">
        <ele>293.34</ele>
        <time>2021-08-29T11:48:21Z</time>
      </trkpt>
      <trkpt lat="43.13807" lon="-0.53552">
        <ele>291.9</ele>
        <time>2021-08-29T11:48:08Z</time>
      </trkpt>
      <trkpt lat="43.13796" lon="-0.53552">
        <ele>290.46</ele>
        <time>2021-08-29T11:47:59Z</time>
      </trkpt>
      <trkpt lat="43.13777" lon="-0.53546">
        <ele>287.09</ele>
        <time>2021-08-29T11:47:43Z</time>
      </trkpt>
      <trkpt lat="43.13762" lon="-0.53534">
        <ele>285.65</ele>
        <time>2021-08-29T11:47:31Z</time>
      </trkpt>
      <trkpt lat="43.13754" lon="-0.53521">
        <ele>284.69</ele>
        <time>2021-08-29T11:47:23Z</time>
      </trkpt>
      <trkpt lat="43.13751" lon="-0.53519">
        <ele>284.69</ele>
        <time>2021-08-29T11:47:20Z</time>
      </trkpt>
      <trkpt lat="43.13743" lon="-0.5352">
        <ele>283.73</ele>
        <time>2021-08-29T11:47:13Z</time>
      </trkpt>
      <trkpt lat="43.13742" lon="-0.53519">
        <ele>283.25</ele>
        <time>2021-08-29T11:47:11Z</time>
      </trkpt>
      <trkpt lat="43.13736" lon="-0.53519">
        <ele>281.8</ele>
        <time>2021-08-29T11:47:00Z</time>
      </trkpt>
      <trkpt lat="43.13721" lon="-0.535">
        <ele>282.77</ele>
        <time>2021-08-29T11:41:30Z</time>
      </trkpt>
      <trkpt lat="43.13709" lon="-0.5346">
        <ele>282.77</ele>
        <time>2021-08-29T11:41:21Z</time>
      </trkpt>
      <trkpt lat="43.13679" lon="-0.53414">
        <ele>282.77</ele>
        <time>2021-08-29T11:41:09Z</time>
      </trkpt>
      <trkpt lat="43.13649" lon="-0.53358">
        <ele>283.73</ele>
        <time>2021-08-29T11:40:57Z</time>
      </trkpt>
      <trkpt lat="43.13642" lon="-0.53313">
        <ele>286.13</ele>
        <time>2021-08-29T11:40:46Z</time>
      </trkpt>
      <trkpt lat="43.1364" lon="-0.53305">
        <ele>286.61</ele>
        <time>2021-08-29T11:40:41Z</time>
      </trkpt>
      <trkpt lat="43.13637" lon="-0.53298">
        <ele>286.61</ele>
        <time>2021-08-29T11:40:38Z</time>
      </trkpt>
      <trkpt lat="43.13626" lon="-0.53291">
        <ele>286.61</ele>
        <time>2021-08-29T11:40:34Z</time>
      </trkpt>
      <trkpt lat="43.13612" lon="-0.53267">
        <ele>287.57</ele>
        <time>2021-08-29T11:40:28Z</time>
      </trkpt>
      <trkpt lat="43.13609" lon="-0.53255">
        <ele>288.05</ele>
        <time>2021-08-29T11:40:26Z</time>
      </trkpt>
      <trkpt lat="43.13607" lon="-0.5325">
        <ele>288.05</ele>
        <time>2021-08-29T11:40:25Z</time>
      </trkpt>
      <trkpt lat="43.13615" lon="-0.53222">
        <ele>292.86</ele>
        <time>2021-08-29T11:40:18Z</time>
      </trkpt>
      <trkpt lat="43.13628" lon="-0.53226">
        <ele>294.3</ele>
        <time>2021-08-29T11:40:15Z</time>
      </trkpt>
      <trkpt lat="43.13637" lon="-0.53228">
        <ele>295.74</ele>
        <time>2021-08-29T11:40:13Z</time>
      </trkpt>
      <trkpt lat="43.13657" lon="-0.53221">
        <ele>298.15</ele>
        <time>2021-08-29T11:40:09Z</time>
      </trkpt>
      <trkpt lat="43.13677" lon="-0.53195">
        <ele>301.99</ele>
        <time>2021-08-29T11:40:03Z</time>
      </trkpt>
      <trkpt lat="43.13688" lon="-0.53182">
        <ele>303.43</ele>
        <time>2021-08-29T11:40:00Z</time>
      </trkpt>
      <trkpt lat="43.13702" lon="-0.53172">
        <ele>304.88</ele>
        <time>2021-08-29T11:39:57Z</time>
      </trkpt>
      <trkpt lat="43.13721" lon="-0.53169">
        <ele>307.28</ele>
        <time>2021-08-29T11:39:53Z</time>
      </trkpt>
      <trkpt lat="43.1373" lon="-0.53168">
        <ele>308.72</ele>
        <time>2021-08-29T11:39:51Z</time>
      </trkpt>
      <trkpt lat="43.13735" lon="-0.53168">
        <ele>309.2</ele>
        <time>2021-08-29T11:39:50Z</time>
      </trkpt>
      <trkpt lat="43.13755" lon="-0.5316">
        <ele>311.12</ele>
        <time>2021-08-29T11:39:46Z</time>
      </trkpt>
      <trkpt lat="43.13778" lon="-0.53148">
        <ele>313.53</ele>
        <time>2021-08-29T11:39:41Z</time>
      </trkpt>
      <trkpt lat="43.13795" lon="-0.53131">
        <ele>314.01</ele>
        <time>2021-08-29T11:39:36Z</time>
      </trkpt>
      <trkpt lat="43.13817" lon="-0.53103">
        <ele>314.01</ele>
        <time>2021-08-29T11:39:25Z</time>
      </trkpt>
      <trkpt lat="43.13819" lon="-0.53099">
        <ele>314.01</ele>
        <time>2021-08-29T11:39:18Z</time>
      </trkpt>
      <trkpt lat="43.13821" lon="-0.53098">
        <ele>314.01</ele>
        <time>2021-08-29T11:38:44Z</time>
      </trkpt>
      <trkpt lat="43.1382" lon="-0.531">
        <ele>315.45</ele>
        <time>2021-08-29T11:38:15Z</time>
      </trkpt>
      <trkpt lat="43.1382" lon="-0.53099">
        <ele>315.45</ele>
        <time>2021-08-29T11:37:53Z</time>
      </trkpt>
      <trkpt lat="43.13811" lon="-0.53108">
        <ele>315.45</ele>
        <time>2021-08-29T11:37:41Z</time>
      </trkpt>
      <trkpt lat="43.13804" lon="-0.53114">
        <ele>315.45</ele>
        <time>2021-08-29T11:37:17Z</time>
      </trkpt>
      <trkpt lat="43.13803" lon="-0.53117">
        <ele>314.97</ele>
        <time>2021-08-29T11:36:57Z</time>
      </trkpt>
      <trkpt lat="43.13795" lon="-0.53124">
        <ele>314.97</ele>
        <time>2021-08-29T11:36:44Z</time>
      </trkpt>
      <trkpt lat="43.13792" lon="-0.53128">
        <ele>314.97</ele>
        <time>2021-08-29T11:36:40Z</time>
      </trkpt>
      <trkpt lat="43.13776" lon="-0.53142">
        <ele>313.53</ele>
        <time>2021-08-29T11:36:28Z</time>
      </trkpt>
      <trkpt lat="43.1376" lon="-0.5315">
        <ele>312.57</ele>
        <time>2021-08-29T11:36:17Z</time>
      </trkpt>
      <trkpt lat="43.13739" lon="-0.5316">
        <ele>310.16</ele>
        <time>2021-08-29T11:36:04Z</time>
      </trkpt>
      <trkpt lat="43.13717" lon="-0.53169">
        <ele>307.28</ele>
        <time>2021-08-29T11:35:52Z</time>
      </trkpt>
      <trkpt lat="43.13705" lon="-0.53172">
        <ele>305.36</ele>
        <time>2021-08-29T11:35:44Z</time>
      </trkpt>
      <trkpt lat="43.13708" lon="-0.53174">
        <ele>305.84</ele>
        <time>2021-08-29T11:35:33Z</time>
      </trkpt>
      <trkpt lat="43.13718" lon="-0.53168">
        <ele>306.8</ele>
        <time>2021-08-29T11:35:18Z</time>
      </trkpt>
      <trkpt lat="43.13742" lon="-0.53165">
        <ele>309.2</ele>
        <time>2021-08-29T11:35:09Z</time>
      </trkpt>
      <trkpt lat="43.13764" lon="-0.53151">
        <ele>312.57</ele>
        <time>2021-08-29T11:35:02Z</time>
      </trkpt>
      <trkpt lat="43.13775" lon="-0.53147">
        <ele>313.53</ele>
        <time>2021-08-29T11:34:58Z</time>
      </trkpt>
      <trkpt lat="43.13781" lon="-0.53144">
        <ele>314.97</ele>
        <time>2021-08-29T11:34:55Z</time>
      </trkpt>
      <trkpt lat="43.13808" lon="-0.53115">
        <ele>314.97</ele>
        <time>2021-08-29T11:34:44Z</time>
      </trkpt>
      <trkpt lat="43.13828" lon="-0.53091">
        <ele>314.97</ele>
        <time>2021-08-29T11:34:34Z</time>
      </trkpt>
      <trkpt lat="43.13845" lon="-0.53069">
        <ele>314.97</ele>
        <time>2021-08-29T11:34:22Z</time>
      </trkpt>
      <trkpt lat="43.13865" lon="-0.53058">
        <ele>314.49</ele>
        <time>2021-08-29T11:34:12Z</time>
      </trkpt>
      <trkpt lat="43.13887" lon="-0.53043">
        <ele>313.05</ele>
        <time>2021-08-29T11:34:00Z</time>
      </trkpt>
      <trkpt lat="43.13926" lon="-0.53013">
        <ele>310.64</ele>
        <time>2021-08-29T11:33:45Z</time>
      </trkpt>
      <trkpt lat="43.13969" lon="-0.52983">
        <ele>310.16</ele>
        <time>2021-08-29T11:33:32Z</time>
      </trkpt>
      <trkpt lat="43.14001" lon="-0.52955">
        <ele>310.16</ele>
        <time>2021-08-29T11:33:20Z</time>
      </trkpt>
      <trkpt lat="43.14047" lon="-0.52924">
        <ele>311.12</ele>
        <time>2021-08-29T11:33:07Z</time>
      </trkpt>
      <trkpt lat="43.14062" lon="-0.52918">
        <ele>312.57</ele>
        <time>2021-08-29T11:33:01Z</time>
      </trkpt>
      <trkpt lat="43.14066" lon="-0.52922">
        <ele>312.57</ele>
        <time>2021-08-29T11:32:58Z</time>
      </trkpt>
      <trkpt lat="43.14066" lon="-0.52921">
        <ele>311.12</ele>
        <time>2021-08-29T11:32:53Z</time>
      </trkpt>
      <trkpt lat="43.14063" lon="-0.52918">
        <ele>311.12</ele>
        <time>2021-08-29T11:32:52Z</time>
      </trkpt>
      <trkpt lat="43.14006" lon="-0.52898">
        <ele>313.05</ele>
        <time>2021-08-29T11:32:39Z</time>
      </trkpt>
      <trkpt lat="43.13961" lon="-0.52882">
        <ele>313.05</ele>
        <time>2021-08-29T11:32:25Z</time>
      </trkpt>
      <trkpt lat="43.13937" lon="-0.52853">
        <ele>310.64</ele>
        <time>2021-08-29T11:32:08Z</time>
      </trkpt>
      <trkpt lat="43.13926" lon="-0.52825">
        <ele>307.76</ele>
        <time>2021-08-29T11:31:54Z</time>
      </trkpt>
      <trkpt lat="43.1391" lon="-0.52799">
        <ele>304.88</ele>
        <time>2021-08-29T11:31:43Z</time>
      </trkpt>
      <trkpt lat="43.13895" lon="-0.52787">
        <ele>303.43</ele>
        <time>2021-08-29T11:31:34Z</time>
      </trkpt>
      <trkpt lat="43.13891" lon="-0.528">
        <ele>304.39</ele>
        <time>2021-08-29T11:31:26Z</time>
      </trkpt>
      <trkpt lat="43.13891" lon="-0.52801">
        <ele>304.39</ele>
        <time>2021-08-29T11:31:08Z</time>
      </trkpt>
      <trkpt lat="43.13889" lon="-0.5279">
        <ele>303.43</ele>
        <time>2021-08-29T11:30:56Z</time>
      </trkpt>
      <trkpt lat="43.13883" lon="-0.52783">
        <ele>302.95</ele>
        <time>2021-08-29T11:30:51Z</time>
      </trkpt>
      <trkpt lat="43.13854" lon="-0.52782">
        <ele>302.47</ele>
        <time>2021-08-29T11:30:42Z</time>
      </trkpt>
      <trkpt lat="43.13821" lon="-0.52779">
        <ele>300.55</ele>
        <time>2021-08-29T11:30:28Z</time>
      </trkpt>
      <trkpt lat="43.13798" lon="-0.52777">
        <ele>300.55</ele>
        <time>2021-08-29T11:30:17Z</time>
      </trkpt>
      <trkpt lat="43.13793" lon="-0.52776">
        <ele>300.07</ele>
        <time>2021-08-29T11:30:05Z</time>
      </trkpt>
      <trkpt lat="43.1376" lon="-0.52778">
        <ele>297.18</ele>
        <time>2021-08-29T11:29:51Z</time>
      </trkpt>
      <trkpt lat="43.13721" lon="-0.52778">
        <ele>295.26</ele>
        <time>2021-08-29T11:29:35Z</time>
      </trkpt>
      <trkpt lat="43.13691" lon="-0.52785">
        <ele>295.74</ele>
        <time>2021-08-29T11:29:24Z</time>
      </trkpt>
      <trkpt lat="43.13662" lon="-0.528">
        <ele>294.3</ele>
        <time>2021-08-29T11:29:07Z</time>
      </trkpt>
      <trkpt lat="43.13634" lon="-0.52803">
        <ele>292.38</ele>
        <time>2021-08-29T11:28:50Z</time>
      </trkpt>
      <trkpt lat="43.13616" lon="-0.52817">
        <ele>289.97</ele>
        <time>2021-08-29T11:28:37Z</time>
      </trkpt>
      <trkpt lat="43.13614" lon="-0.52822">
        <ele>288.53</ele>
        <time>2021-08-29T11:28:33Z</time>
      </trkpt>
      <trkpt lat="43.13611" lon="-0.52828">
        <ele>287.09</ele>
        <time>2021-08-29T11:28:29Z</time>
      </trkpt>
      <trkpt lat="43.13593" lon="-0.52836">
        <ele>284.21</ele>
        <time>2021-08-29T11:28:21Z</time>
      </trkpt>
      <trkpt lat="43.13589" lon="-0.52816">
        <ele>283.25</ele>
        <time>2021-08-29T11:28:14Z</time>
      </trkpt>
      <trkpt lat="43.13585" lon="-0.52815">
        <ele>281.8</ele>
        <time>2021-08-29T11:28:12Z</time>
      </trkpt>
      <trkpt lat="43.13579" lon="-0.52816">
        <ele>281.8</ele>
        <time>2021-08-29T11:28:08Z</time>
      </trkpt>
      <trkpt lat="43.13569" lon="-0.52817">
        <ele>283.25</ele>
        <time>2021-08-29T11:27:59Z</time>
      </trkpt>
      <trkpt lat="43.13567" lon="-0.52818">
        <ele>283.25</ele>
        <time>2021-08-29T11:27:58Z</time>
      </trkpt>
      <trkpt lat="43.13543" lon="-0.52836">
        <ele>284.69</ele>
        <time>2021-08-29T11:27:48Z</time>
      </trkpt>
      <trkpt lat="43.1354" lon="-0.52854">
        <ele>284.69</ele>
        <time>2021-08-29T11:27:42Z</time>
      </trkpt>
      <trkpt lat="43.13534" lon="-0.5286">
        <ele>284.69</ele>
        <time>2021-08-29T11:27:37Z</time>
      </trkpt>
      <trkpt lat="43.13528" lon="-0.52858">
        <ele>285.17</ele>
        <time>2021-08-29T11:27:34Z</time>
      </trkpt>
      <trkpt lat="43.13508" lon="-0.52832">
        <ele>286.13</ele>
        <time>2021-08-29T11:27:22Z</time>
      </trkpt>
      <trkpt lat="43.13503" lon="-0.52828">
        <ele>286.13</ele>
        <time>2021-08-29T11:27:18Z</time>
      </trkpt>
      <trkpt lat="43.135" lon="-0.52829">
        <ele>286.13</ele>
        <time>2021-08-29T11:27:16Z</time>
      </trkpt>
      <trkpt lat="43.13494" lon="-0.52837">
        <ele>286.13</ele>
        <time>2021-08-29T11:27:13Z</time>
      </trkpt>
      <trkpt lat="43.13452" lon="-0.5286">
        <ele>285.65</ele>
        <time>2021-08-29T11:27:00Z</time>
      </trkpt>
      <trkpt lat="43.13441" lon="-0.52849">
        <ele>285.65</ele>
        <time>2021-08-29T11:26:56Z</time>
      </trkpt>
      <trkpt lat="43.13442" lon="-0.52822">
        <ele>286.61</ele>
        <time>2021-08-29T11:26:53Z</time>
      </trkpt>
      <trkpt lat="43.13445" lon="-0.52771">
        <ele>289.49</ele>
        <time>2021-08-29T11:26:48Z</time>
      </trkpt>
      <trkpt lat="43.13446" lon="-0.52756">
        <ele>292.38</ele>
        <time>2021-08-29T11:26:46Z</time>
      </trkpt>
      <trkpt lat="43.13443" lon="-0.52735">
        <ele>296.22</ele>
        <time>2021-08-29T11:26:43Z</time>
      </trkpt>
      <trkpt lat="43.13438" lon="-0.52724">
        <ele>297.67</ele>
        <time>2021-08-29T11:26:41Z</time>
      </trkpt>
      <trkpt lat="43.13434" lon="-0.52712">
        <ele>300.07</ele>
        <time>2021-08-29T11:26:39Z</time>
      </trkpt>
      <trkpt lat="43.13429" lon="-0.52693">
        <ele>303.43</ele>
        <time>2021-08-29T11:26:36Z</time>
      </trkpt>
      <trkpt lat="43.13426" lon="-0.52672">
        <ele>306.32</ele>
        <time>2021-08-29T11:26:32Z</time>
      </trkpt>
      <trkpt lat="43.13426" lon="-0.52667">
        <ele>307.28</ele>
        <time>2021-08-29T11:26:31Z</time>
      </trkpt>
      <trkpt lat="43.13426" lon="-0.52661">
        <ele>307.76</ele>
        <time>2021-08-29T11:26:30Z</time>
      </trkpt>
      <trkpt lat="43.13426" lon="-0.52656">
        <ele>309.2</ele>
        <time>2021-08-29T11:26:29Z</time>
      </trkpt>
      <trkpt lat="43.13426" lon="-0.52651">
        <ele>309.2</ele>
        <time>2021-08-29T11:26:28Z</time>
      </trkpt>
      <trkpt lat="43.13427" lon="-0.52646">
        <ele>310.16</ele>
        <time>2021-08-29T11:26:27Z</time>
      </trkpt>
      <trkpt lat="43.13428" lon="-0.52641">
        <ele>310.16</ele>
        <time>2021-08-29T11:26:26Z</time>
      </trkpt>
      <trkpt lat="43.13429" lon="-0.52637">
        <ele>311.12</ele>
        <time>2021-08-29T11:26:25Z</time>
      </trkpt>
      <trkpt lat="43.13431" lon="-0.52632">
        <ele>311.6</ele>
        <time>2021-08-29T11:26:24Z</time>
      </trkpt>
      <trkpt lat="43.13438" lon="-0.52613">
        <ele>314.01</ele>
        <time>2021-08-29T11:26:20Z</time>
      </trkpt>
      <trkpt lat="43.13463" lon="-0.52581">
        <ele>312.57</ele>
        <time>2021-08-29T11:26:09Z</time>
      </trkpt>
      <trkpt lat="43.13468" lon="-0.52576">
        <ele>311.6</ele>
        <time>2021-08-29T11:26:07Z</time>
      </trkpt>
      <trkpt lat="43.13477" lon="-0.52568">
        <ele>308.24</ele>
        <time>2021-08-29T11:26:03Z</time>
      </trkpt>
      <trkpt lat="43.13481" lon="-0.52564">
        <ele>308.24</ele>
        <time>2021-08-29T11:26:02Z</time>
      </trkpt>
      <trkpt lat="43.13484" lon="-0.52558">
        <ele>309.2</ele>
        <time>2021-08-29T11:26:01Z</time>
      </trkpt>
      <trkpt lat="43.13485" lon="-0.52552">
        <ele>310.64</ele>
        <time>2021-08-29T11:26:00Z</time>
      </trkpt>
      <trkpt lat="43.13487" lon="-0.5254">
        <ele>311.12</ele>
        <time>2021-08-29T11:25:58Z</time>
      </trkpt>
      <trkpt lat="43.13492" lon="-0.52511">
        <ele>314.49</ele>
        <time>2021-08-29T11:25:54Z</time>
      </trkpt>
      <trkpt lat="43.13493" lon="-0.52503">
        <ele>314.49</ele>
        <time>2021-08-29T11:25:53Z</time>
      </trkpt>
      <trkpt lat="43.13494" lon="-0.52496">
        <ele>314.97</ele>
        <time>2021-08-29T11:25:52Z</time>
      </trkpt>
      <trkpt lat="43.13495" lon="-0.52489">
        <ele>315.45</ele>
        <time>2021-08-29T11:25:51Z</time>
      </trkpt>
      <trkpt lat="43.135" lon="-0.52454">
        <ele>316.41</ele>
        <time>2021-08-29T11:25:45Z</time>
      </trkpt>
      <trkpt lat="43.135" lon="-0.52448">
        <ele>316.41</ele>
        <time>2021-08-29T11:25:44Z</time>
      </trkpt>
      <trkpt lat="43.13501" lon="-0.52442">
        <ele>316.41</ele>
        <time>2021-08-29T11:25:43Z</time>
      </trkpt>
      <trkpt lat="43.13502" lon="-0.52436">
        <ele>316.41</ele>
        <time>2021-08-29T11:25:42Z</time>
      </trkpt>
      <trkpt lat="43.13504" lon="-0.52431">
        <ele>316.41</ele>
        <time>2021-08-29T11:25:41Z</time>
      </trkpt>
      <trkpt lat="43.13507" lon="-0.52427">
        <ele>316.41</ele>
        <time>2021-08-29T11:25:40Z</time>
      </trkpt>
      <trkpt lat="43.13511" lon="-0.52422">
        <ele>316.41</ele>
        <time>2021-08-29T11:25:39Z</time>
      </trkpt>
      <trkpt lat="43.13515" lon="-0.52418">
        <ele>316.41</ele>
        <time>2021-08-29T11:25:38Z</time>
      </trkpt>
      <trkpt lat="43.13518" lon="-0.52413">
        <ele>316.41</ele>
        <time>2021-08-29T11:25:37Z</time>
      </trkpt>
      <trkpt lat="43.13528" lon="-0.52399">
        <ele>316.41</ele>
        <time>2021-08-29T11:25:34Z</time>
      </trkpt>
      <trkpt lat="43.13531" lon="-0.52392">
        <ele>316.41</ele>
        <time>2021-08-29T11:25:33Z</time>
      </trkpt>
      <trkpt lat="43.13537" lon="-0.52379">
        <ele>316.89</ele>
        <time>2021-08-29T11:25:31Z</time>
      </trkpt>
      <trkpt lat="43.13551" lon="-0.52333">
        <ele>317.85</ele>
        <time>2021-08-29T11:25:24Z</time>
      </trkpt>
      <trkpt lat="43.13553" lon="-0.52326">
        <ele>317.85</ele>
        <time>2021-08-29T11:25:23Z</time>
      </trkpt>
      <trkpt lat="43.1356" lon="-0.52246">
        <ele>318.81</ele>
        <time>2021-08-29T11:25:12Z</time>
      </trkpt>
      <trkpt lat="43.1356" lon="-0.5224">
        <ele>318.81</ele>
        <time>2021-08-29T11:25:11Z</time>
      </trkpt>
      <trkpt lat="43.13561" lon="-0.52233">
        <ele>318.81</ele>
        <time>2021-08-29T11:25:10Z</time>
      </trkpt>
      <trkpt lat="43.13561" lon="-0.52226">
        <ele>318.81</ele>
        <time>2021-08-29T11:25:09Z</time>
      </trkpt>
      <trkpt lat="43.13562" lon="-0.5222">
        <ele>318.81</ele>
        <time>2021-08-29T11:25:08Z</time>
      </trkpt>
      <trkpt lat="43.13563" lon="-0.52213">
        <ele>318.81</ele>
        <time>2021-08-29T11:25:07Z</time>
      </trkpt>
      <trkpt lat="43.13565" lon="-0.52206">
        <ele>318.81</ele>
        <time>2021-08-29T11:25:06Z</time>
      </trkpt>
      <trkpt lat="43.13566" lon="-0.52199">
        <ele>319.3</ele>
        <time>2021-08-29T11:25:05Z</time>
      </trkpt>
      <trkpt lat="43.13568" lon="-0.52192">
        <ele>319.3</ele>
        <time>2021-08-29T11:25:04Z</time>
      </trkpt>
      <trkpt lat="43.13568" lon="-0.52186">
        <ele>319.3</ele>
        <time>2021-08-29T11:25:03Z</time>
      </trkpt>
      <trkpt lat="43.13572" lon="-0.52115">
        <ele>320.26</ele>
        <time>2021-08-29T11:24:51Z</time>
      </trkpt>
      <trkpt lat="43.13585" lon="-0.52051">
        <ele>319.78</ele>
        <time>2021-08-29T11:24:39Z</time>
      </trkpt>
      <trkpt lat="43.13604" lon="-0.52001">
        <ele>319.3</ele>
        <time>2021-08-29T11:24:28Z</time>
      </trkpt>
      <trkpt lat="43.13625" lon="-0.51954">
        <ele>319.3</ele>
        <time>2021-08-29T11:24:16Z</time>
      </trkpt>
      <trkpt lat="43.1364" lon="-0.5192">
        <ele>319.3</ele>
        <time>2021-08-29T11:24:04Z</time>
      </trkpt>
      <trkpt lat="43.13629" lon="-0.5188">
        <ele>318.33</ele>
        <time>2021-08-29T11:23:47Z</time>
      </trkpt>
      <trkpt lat="43.1361" lon="-0.51854">
        <ele>315.45</ele>
        <time>2021-08-29T11:23:33Z</time>
      </trkpt>
      <trkpt lat="43.13593" lon="-0.51841">
        <ele>312.09</ele>
        <time>2021-08-29T11:23:22Z</time>
      </trkpt>
      <trkpt lat="43.13588" lon="-0.51836">
        <ele>309.2</ele>
        <time>2021-08-29T11:23:18Z</time>
      </trkpt>
      <trkpt lat="43.13578" lon="-0.51828">
        <ele>310.64</ele>
        <time>2021-08-29T11:23:15Z</time>
      </trkpt>
      <trkpt lat="43.13568" lon="-0.51813">
        <ele>314.49</ele>
        <time>2021-08-29T11:23:10Z</time>
      </trkpt>
      <trkpt lat="43.13558" lon="-0.51785">
        <ele>317.85</ele>
        <time>2021-08-29T11:23:05Z</time>
      </trkpt>
      <trkpt lat="43.13551" lon="-0.51776">
        <ele>318.33</ele>
        <time>2021-08-29T11:23:03Z</time>
      </trkpt>
      <trkpt lat="43.13535" lon="-0.51757">
        <ele>319.3</ele>
        <time>2021-08-29T11:22:58Z</time>
      </trkpt>
      <trkpt lat="43.13522" lon="-0.51747">
        <ele>320.26</ele>
        <time>2021-08-29T11:22:55Z</time>
      </trkpt>
      <trkpt lat="43.13505" lon="-0.51718">
        <ele>321.22</ele>
        <time>2021-08-29T11:22:50Z</time>
      </trkpt>
      <trkpt lat="43.13503" lon="-0.51709">
        <ele>321.7</ele>
        <time>2021-08-29T11:22:49Z</time>
      </trkpt>
      <trkpt lat="43.13496" lon="-0.51674">
        <ele>324.58</ele>
        <time>2021-08-29T11:22:45Z</time>
      </trkpt>
      <trkpt lat="43.13492" lon="-0.51638">
        <ele>328.43</ele>
        <time>2021-08-29T11:22:41Z</time>
      </trkpt>
      <trkpt lat="43.13486" lon="-0.51607">
        <ele>331.79</ele>
        <time>2021-08-29T11:22:37Z</time>
      </trkpt>
      <trkpt lat="43.13481" lon="-0.51586">
        <ele>333.23</ele>
        <time>2021-08-29T11:22:34Z</time>
      </trkpt>
      <trkpt lat="43.13477" lon="-0.5157">
        <ele>334.68</ele>
        <time>2021-08-29T11:22:31Z</time>
      </trkpt>
      <trkpt lat="43.13453" lon="-0.51516">
        <ele>334.2</ele>
        <time>2021-08-29T11:22:18Z</time>
      </trkpt>
      <trkpt lat="43.1345" lon="-0.51509">
        <ele>333.23</ele>
        <time>2021-08-29T11:22:16Z</time>
      </trkpt>
      <trkpt lat="43.13447" lon="-0.51507">
        <ele>333.23</ele>
        <time>2021-08-29T11:22:15Z</time>
      </trkpt>
      <trkpt lat="43.13422" lon="-0.51521">
        <ele>333.23</ele>
        <time>2021-08-29T11:22:06Z</time>
      </trkpt>
      <trkpt lat="43.13379" lon="-0.51527">
        <ele>330.35</ele>
        <time>2021-08-29T11:21:54Z</time>
      </trkpt>
      <trkpt lat="43.13375" lon="-0.51528">
        <ele>330.35</ele>
        <time>2021-08-29T11:21:53Z</time>
      </trkpt>
      <trkpt lat="43.13371" lon="-0.51528">
        <ele>330.35</ele>
        <time>2021-08-29T11:21:52Z</time>
      </trkpt>
      <trkpt lat="43.13367" lon="-0.51529">
        <ele>330.83</ele>
        <time>2021-08-29T11:21:51Z</time>
      </trkpt>
      <trkpt lat="43.13362" lon="-0.5153">
        <ele>330.35</ele>
        <time>2021-08-29T11:21:50Z</time>
      </trkpt>
      <trkpt lat="43.13316" lon="-0.51567">
        <ele>331.31</ele>
        <time>2021-08-29T11:21:36Z</time>
      </trkpt>
      <trkpt lat="43.13294" lon="-0.51579">
        <ele>330.35</ele>
        <time>2021-08-29T11:21:30Z</time>
      </trkpt>
      <trkpt lat="43.13246" lon="-0.51578">
        <ele>329.87</ele>
        <time>2021-08-29T11:21:15Z</time>
      </trkpt>
      <trkpt lat="43.13212" lon="-0.51567">
        <ele>327.95</ele>
        <time>2021-08-29T11:21:01Z</time>
      </trkpt>
      <trkpt lat="43.13171" lon="-0.51557">
        <ele>326.02</ele>
        <time>2021-08-29T11:20:43Z</time>
      </trkpt>
      <trkpt lat="43.13144" lon="-0.51553">
        <ele>322.66</ele>
        <time>2021-08-29T11:20:30Z</time>
      </trkpt>
      <trkpt lat="43.1312" lon="-0.51547">
        <ele>319.78</ele>
        <time>2021-08-29T11:20:19Z</time>
      </trkpt>
      <trkpt lat="43.13098" lon="-0.51517">
        <ele>317.37</ele>
        <time>2021-08-29T11:20:04Z</time>
      </trkpt>
      <trkpt lat="43.13066" lon="-0.51481">
        <ele>315.45</ele>
        <time>2021-08-29T11:19:47Z</time>
      </trkpt>
      <trkpt lat="43.13026" lon="-0.51456">
        <ele>312.57</ele>
        <time>2021-08-29T11:19:26Z</time>
      </trkpt>
      <trkpt lat="43.13007" lon="-0.51439">
        <ele>311.12</ele>
        <time>2021-08-29T11:19:11Z</time>
      </trkpt>
      <trkpt lat="43.12985" lon="-0.51417">
        <ele>308.24</ele>
        <time>2021-08-29T11:18:53Z</time>
      </trkpt>
      <trkpt lat="43.12969" lon="-0.514">
        <ele>305.36</ele>
        <time>2021-08-29T11:18:40Z</time>
      </trkpt>
      <trkpt lat="43.12947" lon="-0.51395">
        <ele>303.43</ele>
        <time>2021-08-29T11:18:26Z</time>
      </trkpt>
      <trkpt lat="43.12932" lon="-0.51411">
        <ele>301.99</ele>
        <time>2021-08-29T11:18:11Z</time>
      </trkpt>
      <trkpt lat="43.12928" lon="-0.51439">
        <ele>299.11</ele>
        <time>2021-08-29T11:17:58Z</time>
      </trkpt>
      <trkpt lat="43.12926" lon="-0.5146">
        <ele>296.22</ele>
        <time>2021-08-29T11:17:45Z</time>
      </trkpt>
      <trkpt lat="43.1292" lon="-0.51481">
        <ele>293.34</ele>
        <time>2021-08-29T11:17:30Z</time>
      </trkpt>
      <trkpt lat="43.1292" lon="-0.51483">
        <ele>292.38</ele>
        <time>2021-08-29T11:17:29Z</time>
      </trkpt>
      <trkpt lat="43.12914" lon="-0.51499">
        <ele>291.42</ele>
        <time>2021-08-29T11:17:20Z</time>
      </trkpt>
      <trkpt lat="43.12907" lon="-0.51498">
        <ele>291.42</ele>
        <time>2021-08-29T11:17:05Z</time>
      </trkpt>
      <trkpt lat="43.129" lon="-0.51498">
        <ele>291.9</ele>
        <time>2021-08-29T11:16:48Z</time>
      </trkpt>
      <trkpt lat="43.12898" lon="-0.51498">
        <ele>292.38</ele>
        <time>2021-08-29T11:16:31Z</time>
      </trkpt>
      <trkpt lat="43.12883" lon="-0.51492">
        <ele>293.82</ele>
        <time>2021-08-29T11:16:22Z</time>
      </trkpt>
      <trkpt lat="43.12866" lon="-0.51465">
        <ele>294.78</ele>
        <time>2021-08-29T11:16:16Z</time>
      </trkpt>
      <trkpt lat="43.12863" lon="-0.51429">
        <ele>296.22</ele>
        <time>2021-08-29T11:16:11Z</time>
      </trkpt>
      <trkpt lat="43.12863" lon="-0.51422">
        <ele>296.7</ele>
        <time>2021-08-29T11:16:10Z</time>
      </trkpt>
      <trkpt lat="43.12863" lon="-0.51392">
        <ele>300.55</ele>
        <time>2021-08-29T11:16:05Z</time>
      </trkpt>
      <trkpt lat="43.12866" lon="-0.51388">
        <ele>301.03</ele>
        <time>2021-08-29T11:16:04Z</time>
      </trkpt>
      <trkpt lat="43.12877" lon="-0.51366">
        <ele>305.36</ele>
        <time>2021-08-29T11:16:00Z</time>
      </trkpt>
      <trkpt lat="43.12881" lon="-0.51354">
        <ele>307.76</ele>
        <time>2021-08-29T11:15:57Z</time>
      </trkpt>
      <trkpt lat="43.12889" lon="-0.5133">
        <ele>311.12</ele>
        <time>2021-08-29T11:15:52Z</time>
      </trkpt>
      <trkpt lat="43.129" lon="-0.51297">
        <ele>315.93</ele>
        <time>2021-08-29T11:15:46Z</time>
      </trkpt>
      <trkpt lat="43.12908" lon="-0.51286">
        <ele>317.85</ele>
        <time>2021-08-29T11:15:43Z</time>
      </trkpt>
      <trkpt lat="43.12921" lon="-0.51262">
        <ele>322.18</ele>
        <time>2021-08-29T11:15:37Z</time>
      </trkpt>
      <trkpt lat="43.12942" lon="-0.51244">
        <ele>325.06</ele>
        <time>2021-08-29T11:15:30Z</time>
      </trkpt>
      <trkpt lat="43.12963" lon="-0.51226">
        <ele>327.47</ele>
        <time>2021-08-29T11:15:24Z</time>
      </trkpt>
      <trkpt lat="43.12966" lon="-0.51223">
        <ele>327.47</ele>
        <time>2021-08-29T11:15:23Z</time>
      </trkpt>
      <trkpt lat="43.12977" lon="-0.51198">
        <ele>330.35</ele>
        <time>2021-08-29T11:15:17Z</time>
      </trkpt>
      <trkpt lat="43.13017" lon="-0.51161">
        <ele>333.23</ele>
        <time>2021-08-29T11:15:09Z</time>
      </trkpt>
      <trkpt lat="43.13022" lon="-0.51155">
        <ele>334.2</ele>
        <time>2021-08-29T11:15:08Z</time>
      </trkpt>
      <trkpt lat="43.13038" lon="-0.51129">
        <ele>337.08</ele>
        <time>2021-08-29T11:15:04Z</time>
      </trkpt>
      <trkpt lat="43.13048" lon="-0.51111">
        <ele>338.52</ele>
        <time>2021-08-29T11:15:01Z</time>
      </trkpt>
      <trkpt lat="43.13054" lon="-0.51091">
        <ele>339.96</ele>
        <time>2021-08-29T11:14:57Z</time>
      </trkpt>
      <trkpt lat="43.13057" lon="-0.51077">
        <ele>341.41</ele>
        <time>2021-08-29T11:14:52Z</time>
      </trkpt>
      <trkpt lat="43.13061" lon="-0.51082">
        <ele>341.41</ele>
        <time>2021-08-29T11:14:44Z</time>
      </trkpt>
      <trkpt lat="43.13062" lon="-0.51087">
        <ele>341.41</ele>
        <time>2021-08-29T11:14:39Z</time>
      </trkpt>
      <trkpt lat="43.13063" lon="-0.51089">
        <ele>341.41</ele>
        <time>2021-08-29T11:14:32Z</time>
      </trkpt>
      <trkpt lat="43.13061" lon="-0.51075">
        <ele>340.92</ele>
        <time>2021-08-29T11:14:19Z</time>
      </trkpt>
      <trkpt lat="43.13062" lon="-0.51064">
        <ele>341.41</ele>
        <time>2021-08-29T11:14:11Z</time>
      </trkpt>
      <trkpt lat="43.13073" lon="-0.51028">
        <ele>342.85</ele>
        <time>2021-08-29T11:14:06Z</time>
      </trkpt>
      <trkpt lat="43.13101" lon="-0.5099">
        <ele>345.25</ele>
        <time>2021-08-29T11:13:59Z</time>
      </trkpt>
      <trkpt lat="43.1311" lon="-0.50971">
        <ele>345.25</ele>
        <time>2021-08-29T11:13:56Z</time>
      </trkpt>
      <trkpt lat="43.1312" lon="-0.5094">
        <ele>345.73</ele>
        <time>2021-08-29T11:13:52Z</time>
      </trkpt>
      <trkpt lat="43.13126" lon="-0.50926">
        <ele>346.69</ele>
        <time>2021-08-29T11:13:50Z</time>
      </trkpt>
      <trkpt lat="43.13129" lon="-0.5092">
        <ele>347.65</ele>
        <time>2021-08-29T11:13:49Z</time>
      </trkpt>
      <trkpt lat="43.13134" lon="-0.50894">
        <ele>349.58</ele>
        <time>2021-08-29T11:13:45Z</time>
      </trkpt>
      <trkpt lat="43.13132" lon="-0.50845">
        <ele>349.1</ele>
        <time>2021-08-29T11:13:37Z</time>
      </trkpt>
      <trkpt lat="43.13131" lon="-0.5083">
        <ele>350.06</ele>
        <time>2021-08-29T11:13:35Z</time>
      </trkpt>
      <trkpt lat="43.1313" lon="-0.50823">
        <ele>350.54</ele>
        <time>2021-08-29T11:13:34Z</time>
      </trkpt>
      <trkpt lat="43.13125" lon="-0.5078">
        <ele>351.98</ele>
        <time>2021-08-29T11:13:27Z</time>
      </trkpt>
      <trkpt lat="43.13107" lon="-0.50727">
        <ele>351.02</ele>
        <time>2021-08-29T11:13:16Z</time>
      </trkpt>
      <trkpt lat="43.13092" lon="-0.50702">
        <ele>352.94</ele>
        <time>2021-08-29T11:13:11Z</time>
      </trkpt>
      <trkpt lat="43.13078" lon="-0.50668">
        <ele>352.46</ele>
        <time>2021-08-29T11:13:04Z</time>
      </trkpt>
      <trkpt lat="43.13075" lon="-0.50667">
        <ele>352.46</ele>
        <time>2021-08-29T11:13:03Z</time>
      </trkpt>
      <trkpt lat="43.1304" lon="-0.50693">
        <ele>350.06</ele>
        <time>2021-08-29T11:12:52Z</time>
      </trkpt>
      <trkpt lat="43.12995" lon="-0.50734">
        <ele>349.1</ele>
        <time>2021-08-29T11:12:38Z</time>
      </trkpt>
      <trkpt lat="43.12988" lon="-0.50742">
        <ele>347.65</ele>
        <time>2021-08-29T11:12:35Z</time>
      </trkpt>
      <trkpt lat="43.12985" lon="-0.50744">
        <ele>347.65</ele>
        <time>2021-08-29T11:12:34Z</time>
      </trkpt>
      <trkpt lat="43.12983" lon="-0.50745">
        <ele>347.65</ele>
        <time>2021-08-29T11:12:33Z</time>
      </trkpt>
      <trkpt lat="43.1298" lon="-0.50744">
        <ele>347.65</ele>
        <time>2021-08-29T11:12:32Z</time>
      </trkpt>
      <trkpt lat="43.12953" lon="-0.507">
        <ele>350.54</ele>
        <time>2021-08-29T11:12:21Z</time>
      </trkpt>
      <trkpt lat="43.12923" lon="-0.50644">
        <ele>352.46</ele>
        <time>2021-08-29T11:12:05Z</time>
      </trkpt>
      <trkpt lat="43.12905" lon="-0.50613">
        <ele>351.02</ele>
        <time>2021-08-29T11:11:49Z</time>
      </trkpt>
      <trkpt lat="43.12891" lon="-0.50584">
        <ele>348.13</ele>
        <time>2021-08-29T11:11:32Z</time>
      </trkpt>
      <trkpt lat="43.12873" lon="-0.50562">
        <ele>344.77</ele>
        <time>2021-08-29T11:11:15Z</time>
      </trkpt>
      <trkpt lat="43.12861" lon="-0.50545">
        <ele>343.33</ele>
        <time>2021-08-29T11:11:04Z</time>
      </trkpt>
      <trkpt lat="43.12838" lon="-0.5052">
        <ele>340.92</ele>
        <time>2021-08-29T11:10:47Z</time>
      </trkpt>
      <trkpt lat="43.12819" lon="-0.50504">
        <ele>339</ele>
        <time>2021-08-29T11:10:32Z</time>
      </trkpt>
      <trkpt lat="43.12801" lon="-0.50499">
        <ele>336.6</ele>
        <time>2021-08-29T11:10:19Z</time>
      </trkpt>
      <trkpt lat="43.12776" lon="-0.50497">
        <ele>333.71</ele>
        <time>2021-08-29T11:10:02Z</time>
      </trkpt>
      <trkpt lat="43.12752" lon="-0.50499">
        <ele>330.83</ele>
        <time>2021-08-29T11:09:47Z</time>
      </trkpt>
      <trkpt lat="43.1273" lon="-0.50501">
        <ele>328.91</ele>
        <time>2021-08-29T11:09:32Z</time>
      </trkpt>
      <trkpt lat="43.12706" lon="-0.50506">
        <ele>325.54</ele>
        <time>2021-08-29T11:09:16Z</time>
      </trkpt>
      <trkpt lat="43.12685" lon="-0.50512">
        <ele>323.62</ele>
        <time>2021-08-29T11:09:02Z</time>
      </trkpt>
      <trkpt lat="43.1266" lon="-0.50507">
        <ele>322.18</ele>
        <time>2021-08-29T11:08:47Z</time>
      </trkpt>
      <trkpt lat="43.12656" lon="-0.50508">
        <ele>321.7</ele>
        <time>2021-08-29T11:08:45Z</time>
      </trkpt>
      <trkpt lat="43.12647" lon="-0.50517">
        <ele>320.74</ele>
        <time>2021-08-29T11:08:39Z</time>
      </trkpt>
      <trkpt lat="43.12645" lon="-0.5052">
        <ele>320.74</ele>
        <time>2021-08-29T11:08:37Z</time>
      </trkpt>
      <trkpt lat="43.12631" lon="-0.50528">
        <ele>317.85</ele>
        <time>2021-08-29T11:08:24Z</time>
      </trkpt>
      <trkpt lat="43.12625" lon="-0.50527">
        <ele>317.37</ele>
        <time>2021-08-29T11:08:20Z</time>
      </trkpt>
      <trkpt lat="43.12617" lon="-0.50526">
        <ele>315.93</ele>
        <time>2021-08-29T11:08:14Z</time>
      </trkpt>
      <trkpt lat="43.12614" lon="-0.50525">
        <ele>314.97</ele>
        <time>2021-08-29T11:08:11Z</time>
      </trkpt>
      <trkpt lat="43.12604" lon="-0.50514">
        <ele>311.6</ele>
        <time>2021-08-29T11:08:01Z</time>
      </trkpt>
      <trkpt lat="43.12604" lon="-0.5051">
        <ele>311.6</ele>
        <time>2021-08-29T11:07:55Z</time>
      </trkpt>
      <trkpt lat="43.12599" lon="-0.505">
        <ele>310.16</ele>
        <time>2021-08-29T11:07:39Z</time>
      </trkpt>
      <trkpt lat="43.12589" lon="-0.50489">
        <ele>306.8</ele>
        <time>2021-08-29T11:07:26Z</time>
      </trkpt>
      <trkpt lat="43.12577" lon="-0.50477">
        <ele>303.43</ele>
        <time>2021-08-29T11:07:11Z</time>
      </trkpt>
      <trkpt lat="43.12577" lon="-0.50474">
        <ele>303.43</ele>
        <time>2021-08-29T11:07:09Z</time>
      </trkpt>
      <trkpt lat="43.12575" lon="-0.5047">
        <ele>302.47</ele>
        <time>2021-08-29T11:07:06Z</time>
      </trkpt>
      <trkpt lat="43.12573" lon="-0.50472">
        <ele>301.03</ele>
        <time>2021-08-29T11:07:04Z</time>
      </trkpt>
      <trkpt lat="43.12569" lon="-0.50475">
        <ele>301.03</ele>
        <time>2021-08-29T11:07:00Z</time>
      </trkpt>
      <trkpt lat="43.12564" lon="-0.50476">
        <ele>301.99</ele>
        <time>2021-08-29T11:06:56Z</time>
      </trkpt>
      <trkpt lat="43.1256" lon="-0.5047">
        <ele>304.88</ele>
        <time>2021-08-29T11:06:52Z</time>
      </trkpt>
      <trkpt lat="43.12555" lon="-0.50457">
        <ele>305.36</ele>
        <time>2021-08-29T11:06:47Z</time>
      </trkpt>
      <trkpt lat="43.12523" lon="-0.50438">
        <ele>305.36</ele>
        <time>2021-08-29T11:06:38Z</time>
      </trkpt>
      <trkpt lat="43.12513" lon="-0.50402">
        <ele>307.28</ele>
        <time>2021-08-29T11:06:32Z</time>
      </trkpt>
      <trkpt lat="43.12496" lon="-0.50366">
        <ele>308.72</ele>
        <time>2021-08-29T11:06:24Z</time>
      </trkpt>
      <trkpt lat="43.1249" lon="-0.50357">
        <ele>308.72</ele>
        <time>2021-08-29T11:06:22Z</time>
      </trkpt>
      <trkpt lat="43.12481" lon="-0.50335">
        <ele>309.68</ele>
        <time>2021-08-29T11:06:18Z</time>
      </trkpt>
      <trkpt lat="43.12474" lon="-0.50311">
        <ele>310.16</ele>
        <time>2021-08-29T11:06:14Z</time>
      </trkpt>
      <trkpt lat="43.1246" lon="-0.50291">
        <ele>310.16</ele>
        <time>2021-08-29T11:06:09Z</time>
      </trkpt>
      <trkpt lat="43.12458" lon="-0.50269">
        <ele>310.16</ele>
        <time>2021-08-29T11:06:05Z</time>
      </trkpt>
      <trkpt lat="43.1245" lon="-0.50249">
        <ele>310.16</ele>
        <time>2021-08-29T11:06:01Z</time>
      </trkpt>
      <trkpt lat="43.12431" lon="-0.50234">
        <ele>308.72</ele>
        <time>2021-08-29T11:05:53Z</time>
      </trkpt>
      <trkpt lat="43.12434" lon="-0.50177">
        <ele>310.64</ele>
        <time>2021-08-29T11:05:43Z</time>
      </trkpt>
      <trkpt lat="43.12449" lon="-0.50132">
        <ele>312.09</ele>
        <time>2021-08-29T11:05:33Z</time>
      </trkpt>
      <trkpt lat="43.12448" lon="-0.50115">
        <ele>311.6</ele>
        <time>2021-08-29T11:05:29Z</time>
      </trkpt>
      <trkpt lat="43.12449" lon="-0.50111">
        <ele>312.09</ele>
        <time>2021-08-29T11:05:28Z</time>
      </trkpt>
      <trkpt lat="43.12448" lon="-0.50095">
        <ele>312.09</ele>
        <time>2021-08-29T11:05:20Z</time>
      </trkpt>
      <trkpt lat="43.12448" lon="-0.50095">
        <ele>312.09</ele>
        <time>2021-08-29T11:05:20Z</time>
      </trkpt>
    </trkseg>
  </trk>
</gpx>